Observation data for Caprock Canyons on 07/11/2020      Previous  Date  Next       Current Mesonet Observations  Soil Data  Daily Summary Page  Observations in Plain Language
KQU1 110500Z 17004KT 28/18 A3003 RMK A01 T02770183  RH  057%=      5-min Rain = 0
KQU1 110501Z 17004KT 28/18 A3003 RMK A01 T02760183  RH  057%=      5-min Rain = 0
KQU1 110502Z 16004KT 28/18 A3003 RMK A01 T02760183  RH  057%=      5-min Rain = 0
KQU1 110503Z 16003KT 28/18 A3003 RMK A01 T02760183  RH  057%=      5-min Rain = 0
KQU1 110504Z 15003KT 28/18 A3003 RMK A01 T02750183  RH  057%=      5-min Rain = 0
KQU1 110505Z 15002KT 28/18 A3003 RMK A01 T02750183  RH  057%=      5-min Rain = 0
KQU1 110506Z 15002KT 28/18 A3003 RMK A01 T02750183  RH  057%=      5-min Rain = 0
KQU1 110507Z 14002KT 27/18 A3003 RMK A01 T02740183  RH  058%=      5-min Rain = 0
KQU1 110508Z 14003KT 27/18 A3003 RMK A01 T02740184  RH  058%=      5-min Rain = 0
KQU1 110509Z 14003KT 27/18 A3003 RMK A01 T02730184  RH  058%=      5-min Rain = 0
KQU1 110510Z 14003KT 27/18 A3003 RMK A01 T02730184  RH  058%=      5-min Rain = 0
KQU1 110511Z 14003KT 27/18 A3003 RMK A01 T02720184  RH  058%=      5-min Rain = 0
KQU1 110512Z 15004KT 27/18 A3003 RMK A01 T02720184  RH  059%=      5-min Rain = 0
KQU1 110513Z 15004KT 27/18 A3003 RMK A01 T02710183  RH  059%=      5-min Rain = 0
KQU1 110514Z 15004KT 27/18 A3003 RMK A01 T02710183  RH  059%=      5-min Rain = 0
KQU1 110515Z 15004KT 27/18 A3003 RMK A01 T02720183  RH  058%=      5-min Rain = 0
KQU1 110516Z 15004KT 27/18 A3003 RMK A01 T02720184  RH  058%=      5-min Rain = 0
KQU1 110517Z 16004KT 27/18 A3003 RMK A01 T02720184  RH  058%=      5-min Rain = 0
KQU1 110518Z 16004KT 27/18 A3003 RMK A01 T02720184  RH  058%=      5-min Rain = 0
KQU1 110519Z 16004KT 27/18 A3003 RMK A01 T02720184  RH  058%=      5-min Rain = 0
KQU1 110520Z 16004KT 27/18 A3003 RMK A01 T02720184  RH  059%=      5-min Rain = 0
KQU1 110521Z 16004KT 27/18 A3003 RMK A01 T02720184  RH  059%=      5-min Rain = 0
KQU1 110522Z 17004KT 27/18 A3003 RMK A01 T02720184  RH  058%=      5-min Rain = 0
KQU1 110523Z 17004KT 27/18 A3003 RMK A01 T02720184  RH  058%=      5-min Rain = 0
KQU1 110524Z 16004KT 27/18 A3003 RMK A01 T02720184  RH  058%=      5-min Rain = 0
KQU1 110525Z 16004KT 27/18 A3003 RMK A01 T02730184  RH  058%=      5-min Rain = 0
KQU1 110526Z 16004KT 27/18 A3003 RMK A01 T02730183  RH  058%=      5-min Rain = 0
KQU1 110527Z 16004KT 27/18 A3003 RMK A01 T02730183  RH  058%=      5-min Rain = 0
KQU1 110528Z 17004KT 27/18 A3003 RMK A01 T02730183  RH  058%=      5-min Rain = 0
KQU1 110529Z 17004KT 27/18 A3003 RMK A01 T02730183  RH  058%=      5-min Rain = 0
KQU1 110530Z 17005KT 27/18 A3003 RMK A01 T02730183  RH  058%=      5-min Rain = 0
KQU1 110531Z 17005KT 27/18 A3003 RMK A01 T02730183  RH  058%=      5-min Rain = 0
KQU1 110532Z 17004KT 27/18 A3003 RMK A01 T02730183  RH  058%=      5-min Rain = 0
KQU1 110533Z 17004KT 27/18 A3003 RMK A01 T02730183  RH  058%=      5-min Rain = 0
KQU1 110534Z 17004KT 27/18 A3003 RMK A01 T02730183  RH  058%=      5-min Rain = 0
KQU1 110535Z 17004KT 27/18 A3003 RMK A01 T02730183  RH  058%=      5-min Rain = 0
KQU1 110536Z 17004KT 27/18 A3003 RMK A01 T02730183  RH  058%=      5-min Rain = 0
KQU1 110537Z 17004KT 27/18 A3003 RMK A01 T02730183  RH  058%=      5-min Rain = 0
KQU1 110538Z 17005KT 27/18 A3003 RMK A01 T02720183  RH  058%=      5-min Rain = 0
KQU1 110539Z 17004KT 27/18 A3003 RMK A01 T02730183  RH  058%=      5-min Rain = 0
KQU1 110540Z 17004KT 27/18 A3003 RMK A01 T02720183  RH  058%=      5-min Rain = 0
KQU1 110541Z 17004KT 27/18 A3003 RMK A01 T02720183  RH  058%=      5-min Rain = 0
KQU1 110542Z 17004KT 27/18 A3003 RMK A01 T02720183  RH  058%=      5-min Rain = 0
KQU1 110543Z 18004KT 27/18 A3003 RMK A01 T02720183  RH  058%=      5-min Rain = 0
KQU1 110544Z 17004KT 27/18 A3003 RMK A01 T02720183  RH  058%=      5-min Rain = 0
KQU1 110545Z 17004KT 27/18 A3003 RMK A01 T02710182  RH  058%=      5-min Rain = 0
KQU1 110546Z 17004KT 27/18 A3003 RMK A01 T02710182  RH  058%=      5-min Rain = 0
KQU1 110547Z 17004KT 27/18 A3003 RMK A01 T02710182  RH  058%=      5-min Rain = 0
KQU1 110548Z 17004KT 27/18 A3003 RMK A01 T02710182  RH  058%=      5-min Rain = 0
KQU1 110549Z 16005KT 27/18 A3003 RMK A01 T02710183  RH  058%=      5-min Rain = 0
KQU1 110550Z 16004KT 27/18 A3003 RMK A01 T02710183  RH  059%=      5-min Rain = 0
KQU1 110551Z 16005KT 27/18 A3003 RMK A01 T02700184  RH  059%=      5-min Rain = 0
KQU1 110552Z 16005KT 27/18 A3003 RMK A01 T02690184  RH  060%=      5-min Rain = 0
KQU1 110553Z 16005KT 27/18 A3003 RMK A01 T02680184  RH  060%=      5-min Rain = 0
KQU1 110554Z 17005KT 27/18 A3003 RMK A01 T02670184  RH  060%=      5-min Rain = 0
KQU1 110555Z 17005KT 27/18 A3003 RMK A01 T02660184  RH  061%=      5-min Rain = 0
KQU1 110556Z 17005KT 27/18 A3003 RMK A01 T02660183  RH  061%=      5-min Rain = 0
KQU1 110557Z 17005KT 27/18 A3003 RMK A01 T02660183  RH  060%=      5-min Rain = 0
KQU1 110558Z 17005KT 27/18 A3003 RMK A01 T02660183  RH  060%=      5-min Rain = 0
KQU1 110559Z 17004KT 27/18 A3003 RMK A01 T02660183  RH  060%=      5-min Rain = 0
KQU1 110600Z 17004KT 27/18 A3003 RMK A01 T02670183  RH  060%=      5-min Rain = 0
KQU1 110601Z 17004KT 27/18 A3003 RMK A01 T02670183  RH  060%=      5-min Rain = 0
KQU1 110602Z 17004KT 27/18 A3003 RMK A01 T02670183  RH  060%=      5-min Rain = 0
KQU1 110603Z 17004KT 27/18 A3003 RMK A01 T02680182  RH  060%=      5-min Rain = 0
KQU1 110604Z 17004KT 27/18 A3003 RMK A01 T02680183  RH  059%=      5-min Rain = 0
KQU1 110605Z 17004KT 27/18 A3003 RMK A01 T02680183  RH  060%=      5-min Rain = 0
KQU1 110606Z 16004KT 27/18 A3003 RMK A01 T02680183  RH  060%=      5-min Rain = 0
KQU1 110607Z 17004KT 27/18 A3003 RMK A01 T02670183  RH  060%=      5-min Rain = 0
KQU1 110608Z 17004KT 27/18 A3003 RMK A01 T02670183  RH  060%=      5-min Rain = 0
KQU1 110609Z 16004KT 27/18 A3003 RMK A01 T02670183  RH  060%=      5-min Rain = 0
KQU1 110610Z 16004KT 27/18 A3003 RMK A01 T02670183  RH  060%=      5-min Rain = 0
KQU1 110611Z 16004KT 27/18 A3003 RMK A01 T02670183  RH  060%=      5-min Rain = 0
KQU1 110612Z 17004KT 27/18 A3003 RMK A01 T02670183  RH  060%=      5-min Rain = 0
KQU1 110613Z 17004KT 27/18 A3003 RMK A01 T02660183  RH  060%=      5-min Rain = 0
KQU1 110614Z 17004KT 27/18 A3003 RMK A01 T02670183  RH  060%=      5-min Rain = 0
KQU1 110615Z 17004KT 27/18 A3003 RMK A01 T02670182  RH  060%=      5-min Rain = 0
KQU1 110616Z 17004KT 27/18 A3003 RMK A01 T02670182  RH  060%=      5-min Rain = 0
KQU1 110617Z 18004KT 27/18 A3003 RMK A01 T02670182  RH  060%=      5-min Rain = 0
KQU1 110618Z 17003KT 27/18 A3003 RMK A01 T02670182  RH  059%=      5-min Rain = 0
KQU1 110619Z 17003KT 27/18 A3003 RMK A01 T02670182  RH  060%=      5-min Rain = 0
KQU1 110620Z 17004KT 27/18 A3003 RMK A01 T02670182  RH  060%=      5-min Rain = 0
KQU1 110621Z 17003KT 27/18 A3003 RMK A01 T02670182  RH  060%=      5-min Rain = 0
KQU1 110622Z 17003KT 27/18 A3003 RMK A01 T02660182  RH  060%=      5-min Rain = 0
KQU1 110623Z 17004KT 27/18 A3003 RMK A01 T02660182  RH  060%=      5-min Rain = 0
KQU1 110624Z 17003KT 27/18 A3003 RMK A01 T02660182  RH  060%=      5-min Rain = 0
KQU1 110625Z 18003KT 27/18 A3003 RMK A01 T02660182  RH  060%=      5-min Rain = 0
KQU1 110626Z 18003KT 27/18 A3003 RMK A01 T02650182  RH  060%=      5-min Rain = 0
KQU1 110627Z 18003KT 27/18 A3002 RMK A01 T02650182  RH  060%=      5-min Rain = 0
KQU1 110628Z 18003KT 26/18 A3002 RMK A01 T02640183  RH  061%=      5-min Rain = 0
KQU1 110629Z 18003KT 26/18 A3002 RMK A01 T02640182  RH  061%=      5-min Rain = 0
KQU1 110630Z 18003KT 26/18 A3002 RMK A01 T02630183  RH  061%=      5-min Rain = 0
KQU1 110631Z 18003KT 26/18 A3002 RMK A01 T02620183  RH  062%=      5-min Rain = 0
KQU1 110632Z 19003KT 26/18 A3002 RMK A01 T02600183  RH  062%=      5-min Rain = 0
KQU1 110633Z 19003KT 26/18 A3002 RMK A01 T02580183  RH  063%=      5-min Rain = 0
KQU1 110634Z 19003KT 26/18 A3002 RMK A01 T02560183  RH  064%=      5-min Rain = 0
KQU1 110635Z 19003KT 26/18 A3002 RMK A01 T02550183  RH  065%=      5-min Rain = 0
KQU1 110636Z 19003KT 25/18 A3002 RMK A01 T02540183  RH  065%=      5-min Rain = 0
KQU1 110637Z 19003KT 25/18 A3002 RMK A01 T02530183  RH  065%=      5-min Rain = 0
KQU1 110638Z 19003KT 25/18 A3002 RMK A01 T02530183  RH  065%=      5-min Rain = 0
KQU1 110639Z 19004KT 25/18 A3002 RMK A01 T02530183  RH  065%=      5-min Rain = 0
KQU1 110640Z 19004KT 25/18 A3002 RMK A01 T02530183  RH  065%=      5-min Rain = 0
KQU1 110641Z 18004KT 25/18 A3002 RMK A01 T02530183  RH  065%=      5-min Rain = 0
KQU1 110642Z 19004KT 25/18 A3002 RMK A01 T02540183  RH  065%=      5-min Rain = 0
KQU1 110643Z 19004KT 25/18 A3002 RMK A01 T02540183  RH  065%=      5-min Rain = 0
KQU1 110644Z 19004KT 25/18 A3002 RMK A01 T02540183  RH  065%=      5-min Rain = 0
KQU1 110645Z 19004KT 25/18 A3002 RMK A01 T02540183  RH  065%=      5-min Rain = 0
KQU1 110646Z 20004KT 25/18 A3002 RMK A01 T02540183  RH  065%=      5-min Rain = 0
KQU1 110647Z 19004KT 25/18 A3002 RMK A01 T02540183  RH  065%=      5-min Rain = 0
KQU1 110648Z 20004KT 25/18 A3002 RMK A01 T02530183  RH  065%=      5-min Rain = 0
KQU1 110649Z 20004KT 25/18 A3002 RMK A01 T02530183  RH  065%=      5-min Rain = 0
KQU1 110650Z 20005KT 25/18 A3002 RMK A01 T02530183  RH  065%=      5-min Rain = 0
KQU1 110651Z 20005KT 25/18 A3001 RMK A01 T02530183  RH  065%=      5-min Rain = 0
KQU1 110652Z 19005KT 25/18 A3001 RMK A01 T02530183  RH  065%=      5-min Rain = 0
KQU1 110653Z 19005KT 25/18 A3001 RMK A01 T02530183  RH  065%=      5-min Rain = 0
KQU1 110654Z 19005KT 25/18 A3001 RMK A01 T02540183  RH  065%=      5-min Rain = 0
KQU1 110655Z 18005KT 26/18 A3001 RMK A01 T02560183  RH  064%=      5-min Rain = 0
KQU1 110656Z 19005KT 26/18 A3001 RMK A01 T02570183  RH  064%=      5-min Rain = 0
KQU1 110657Z 19005KT 26/18 A3001 RMK A01 T02570183  RH  064%=      5-min Rain = 0
KQU1 110658Z 19005KT 26/18 A3001 RMK A01 T02580183  RH  063%=      5-min Rain = 0
KQU1 110659Z 20005KT 26/18 A3001 RMK A01 T02580183  RH  064%=      5-min Rain = 0
KQU1 110700Z 20005KT 26/18 A3001 RMK A01 T02570184  RH  064%=      5-min Rain = 0
KQU1 110701Z 20005KT 26/18 A3001 RMK A01 T02570184  RH  064%=      5-min Rain = 0
KQU1 110702Z 19005KT 26/18 A3001 RMK A01 T02570184  RH  064%=      5-min Rain = 0
KQU1 110703Z 20005KT 26/18 A3001 RMK A01 T02570184  RH  064%=      5-min Rain = 0
KQU1 110704Z 20006KT 26/18 A3001 RMK A01 T02570184  RH  064%=      5-min Rain = 0
KQU1 110705Z 20006KT 26/18 A3001 RMK A01 T02570184  RH  064%=      5-min Rain = 0
KQU1 110706Z 20005KT 26/18 A3001 RMK A01 T02570184  RH  064%=      5-min Rain = 0
KQU1 110707Z 19005KT 26/18 A3001 RMK A01 T02580184  RH  064%=      5-min Rain = 0
KQU1 110708Z 20006KT 26/18 A3001 RMK A01 T02580184  RH  064%=      5-min Rain = 0
KQU1 110709Z 19006KT 26/18 A3001 RMK A01 T02580184  RH  063%=      5-min Rain = 0
KQU1 110710Z 19006KT 26/18 A3001 RMK A01 T02590184  RH  063%=      5-min Rain = 0
KQU1 110711Z 19006KT 26/18 A3001 RMK A01 T02590184  RH  063%=      5-min Rain = 0
KQU1 110712Z 19005KT 26/18 A3001 RMK A01 T02590184  RH  063%=      5-min Rain = 0
KQU1 110713Z 20005KT 26/18 A3001 RMK A01 T02590184  RH  063%=      5-min Rain = 0
KQU1 110714Z 20005KT 26/18 A3001 RMK A01 T02590184  RH  063%=      5-min Rain = 0
KQU1 110715Z 21004KT 26/18 A3001 RMK A01 T02590184  RH  063%=      5-min Rain = 0
KQU1 110716Z 20005KT 26/18 A3001 RMK A01 T02580184  RH  064%=      5-min Rain = 0
KQU1 110717Z 21005KT 26/18 A3001 RMK A01 T02560184  RH  064%=      5-min Rain = 0
KQU1 110718Z 21005KT 25/19 A3001 RMK A01 T02540185  RH  065%=      5-min Rain = 0
KQU1 110719Z 21005KT 25/19 A3001 RMK A01 T02530185  RH  066%=      5-min Rain = 0
KQU1 110720Z 22005KT 25/19 A3001 RMK A01 T02520185  RH  066%=      5-min Rain = 0
KQU1 110721Z 21005KT 25/19 A3002 RMK A01 T02510185  RH  067%=      5-min Rain = 0
KQU1 110722Z 21004KT 25/19 A3002 RMK A01 T02510185  RH  067%=      5-min Rain = 0
KQU1 110723Z 22005KT 25/19 A3002 RMK A01 T02510185  RH  067%=      5-min Rain = 0
KQU1 110724Z 22004KT 25/19 A3002 RMK A01 T02510185  RH  067%=      5-min Rain = 0
KQU1 110725Z 22005KT 25/19 A3002 RMK A01 T02510185  RH  067%=      5-min Rain = 0
KQU1 110726Z 22004KT 25/19 A3002 RMK A01 T02510185  RH  067%=      5-min Rain = 0
KQU1 110727Z 22005KT 25/19 A3002 RMK A01 T02500185  RH  067%=      5-min Rain = 0
KQU1 110728Z 22004KT 25/19 A3002 RMK A01 T02500185  RH  067%=      5-min Rain = 0
KQU1 110729Z 21004KT 25/19 A3002 RMK A01 T02500185  RH  067%=      5-min Rain = 0
KQU1 110730Z 21004KT 25/19 A3001 RMK A01 T02500185  RH  067%=      5-min Rain = 0
KQU1 110731Z 21004KT 25/19 A3001 RMK A01 T02490185  RH  067%=      5-min Rain = 0
KQU1 110732Z 21004KT 25/19 A3001 RMK A01 T02490185  RH  067%=      5-min Rain = 0
KQU1 110733Z 22004KT 25/19 A3001 RMK A01 T02490185  RH  067%=      5-min Rain = 0
KQU1 110734Z 21004KT 25/18 A3001 RMK A01 T02490184  RH  067%=      5-min Rain = 0
KQU1 110735Z 21004KT 25/18 A3001 RMK A01 T02490184  RH  067%=      5-min Rain = 0
KQU1 110736Z 20003KT 25/18 A3001 RMK A01 T02480184  RH  068%=      5-min Rain = 0
KQU1 110737Z 20004KT 25/18 A3001 RMK A01 T02470184  RH  068%=      5-min Rain = 0
KQU1 110738Z 20004KT 25/18 A3001 RMK A01 T02470184  RH  068%=      5-min Rain = 0
KQU1 110739Z 19004KT 25/18 A3001 RMK A01 T02470184  RH  068%=      5-min Rain = 0
KQU1 110740Z 20004KT 25/18 A3001 RMK A01 T02470184  RH  068%=      5-min Rain = 0
KQU1 110741Z 20004KT 25/18 A3001 RMK A01 T02470184  RH  068%=      5-min Rain = 0
KQU1 110742Z 20004KT 25/18 A3001 RMK A01 T02470184  RH  068%=      5-min Rain = 0
KQU1 110743Z 19004KT 25/18 A3001 RMK A01 T02470184  RH  068%=      5-min Rain = 0
KQU1 110744Z 19004KT 25/18 A3001 RMK A01 T02470184  RH  068%=      5-min Rain = 0
KQU1 110745Z 19004KT 25/18 A3001 RMK A01 T02480184  RH  068%=      5-min Rain = 0
KQU1 110746Z 20004KT 25/18 A3001 RMK A01 T02480184  RH  068%=      5-min Rain = 0
KQU1 110747Z 20004KT 25/18 A3001 RMK A01 T02480184  RH  068%=      5-min Rain = 0
KQU1 110748Z 20004KT 25/19 A3001 RMK A01 T02470185  RH  068%=      5-min Rain = 0
KQU1 110749Z 20004KT 25/19 A3001 RMK A01 T02470185  RH  068%=      5-min Rain = 0
KQU1 110750Z 21004KT 25/19 A3001 RMK A01 T02460185  RH  069%=      5-min Rain = 0
KQU1 110751Z 21004KT 25/19 A3001 RMK A01 T02460185  RH  069%=      5-min Rain = 0
KQU1 110752Z 21004KT 25/19 A3001 RMK A01 T02450185  RH  069%=      5-min Rain = 0
KQU1 110753Z 21004KT 25/19 A3001 RMK A01 T02450185  RH  069%=      5-min Rain = 0
KQU1 110754Z 20004KT 25/19 A3001 RMK A01 T02450185  RH  069%=      5-min Rain = 0
KQU1 110755Z 20004KT 25/19 A3001 RMK A01 T02450185  RH  069%=      5-min Rain = 0
KQU1 110756Z 21004KT 25/19 A3002 RMK A01 T02450185  RH  069%=      5-min Rain = 0
KQU1 110757Z 21004KT 25/19 A3002 RMK A01 T02450185  RH  069%=      5-min Rain = 0
KQU1 110758Z 21003KT 25/19 A3002 RMK A01 T02450185  RH  069%=      5-min Rain = 0
KQU1 110759Z 21003KT 25/19 A3002 RMK A01 T02450185  RH  069%=      5-min Rain = 0
KQU1 110800Z 21003KT 25/19 A3002 RMK A01 T02450185  RH  069%=      5-min Rain = 0
KQU1 110801Z 21003KT 25/19 A3002 RMK A01 T02450185  RH  069%=      5-min Rain = 0
KQU1 110802Z 21003KT 25/18 A3002 RMK A01 T02450184  RH  069%=      5-min Rain = 0
KQU1 110803Z 21003KT 25/19 A3002 RMK A01 T02460185  RH  069%=      5-min Rain = 0
KQU1 110804Z 21003KT 25/18 A3002 RMK A01 T02450184  RH  069%=      5-min Rain = 0
KQU1 110805Z 21003KT 25/18 A3002 RMK A01 T02450184  RH  069%=      5-min Rain = 0
KQU1 110806Z 21003KT 25/18 A3002 RMK A01 T02450184  RH  069%=      5-min Rain = 0
KQU1 110807Z 21003KT 25/19 A3002 RMK A01 T02450185  RH  069%=      5-min Rain = 0
KQU1 110808Z 21003KT 25/19 A3002 RMK A01 T02450185  RH  069%=      5-min Rain = 0
KQU1 110809Z 21003KT 25/19 A3002 RMK A01 T02450185  RH  069%=      5-min Rain = 0
KQU1 110810Z 21003KT 25/19 A3001 RMK A01 T02450185  RH  069%=      5-min Rain = 0
KQU1 110811Z 21003KT 25/19 A3001 RMK A01 T02450185  RH  069%=      5-min Rain = 0
KQU1 110812Z 21003KT 25/19 A3001 RMK A01 T02450185  RH  069%=      5-min Rain = 0
KQU1 110813Z 20003KT 25/18 A3001 RMK A01 T02450184  RH  069%=      5-min Rain = 0
KQU1 110814Z 20003KT 25/18 A3001 RMK A01 T02450184  RH  069%=      5-min Rain = 0
KQU1 110815Z 21003KT 25/19 A3001 RMK A01 T02450185  RH  069%=      5-min Rain = 0
KQU1 110816Z 21003KT 24/18 A3001 RMK A01 T02440184  RH  069%=      5-min Rain = 0
KQU1 110817Z 21003KT 24/18 A3001 RMK A01 T02440184  RH  069%=      5-min Rain = 0
KQU1 110818Z 21003KT 24/18 A3001 RMK A01 T02440184  RH  069%=      5-min Rain = 0
KQU1 110819Z 21002KT 24/18 A3001 RMK A01 T02440184  RH  069%=      5-min Rain = 0
KQU1 110820Z 21002KT 24/18 A3002 RMK A01 T02440184  RH  069%=      5-min Rain = 0
KQU1 110821Z 21002KT 24/18 A3002 RMK A01 T02430184  RH  070%=      5-min Rain = 0
KQU1 110822Z 22002KT 24/18 A3001 RMK A01 T02430184  RH  070%=      5-min Rain = 0
KQU1 110823Z 22002KT 24/18 A3001 RMK A01 T02430184  RH  070%=      5-min Rain = 0
KQU1 110824Z 21002KT 24/18 A3001 RMK A01 T02430184  RH  070%=      5-min Rain = 0
KQU1 110825Z 21002KT 24/18 A3001 RMK A01 T02430184  RH  070%=      5-min Rain = 0
KQU1 110826Z 21002KT 24/19 A3001 RMK A01 T02430185  RH  070%=      5-min Rain = 0
KQU1 110827Z 21002KT 24/18 A3001 RMK A01 T02440184  RH  069%=      5-min Rain = 0
KQU1 110828Z 21002KT 24/18 A3001 RMK A01 T02430184  RH  070%=      5-min Rain = 0
KQU1 110829Z 21002KT 24/18 A3001 RMK A01 T02420184  RH  070%=      5-min Rain = 0
KQU1 110830Z 22002KT 24/18 A3001 RMK A01 T02420184  RH  070%=      5-min Rain = 0
KQU1 110831Z 22002KT 24/18 A3001 RMK A01 T02410183  RH  070%=      5-min Rain = 0
KQU1 110832Z 21002KT 24/18 A3001 RMK A01 T02400183  RH  070%=      5-min Rain = 0
KQU1 110833Z 21002KT 24/18 A3001 RMK A01 T02390183  RH  071%=      5-min Rain = 0
KQU1 110834Z 22002KT 24/18 A3001 RMK A01 T02380182  RH  071%=      5-min Rain = 0
KQU1 110835Z 23002KT 24/18 A3001 RMK A01 T02370182  RH  071%=      5-min Rain = 0
KQU1 110836Z 25002KT 24/18 A3001 RMK A01 T02370182  RH  071%=      5-min Rain = 0
KQU1 110837Z 26003KT 24/18 A3002 RMK A01 T02360182  RH  072%=      5-min Rain = 0
KQU1 110838Z 25003KT 24/18 A3002 RMK A01 T02350182  RH  072%=      5-min Rain = 0
KQU1 110839Z 24002KT 24/18 A3001 RMK A01 T02350182  RH  072%=      5-min Rain = 0
KQU1 110840Z 23002KT 23/18 A3002 RMK A01 T02340182  RH  072%=      5-min Rain = 0
KQU1 110841Z 22002KT 23/18 A3002 RMK A01 T02340182  RH  072%=      5-min Rain = 0
KQU1 110842Z 23001KT 23/18 A3002 RMK A01 T02340182  RH  072%=      5-min Rain = 0
KQU1 110843Z 26002KT 23/18 A3002 RMK A01 T02340182  RH  072%=      5-min Rain = 0
KQU1 110844Z 27002KT 23/18 A3002 RMK A01 T02340181  RH  072%=      5-min Rain = 0
KQU1 110845Z 27003KT 23/18 A3002 RMK A01 T02330181  RH  073%=      5-min Rain = 0
KQU1 110846Z 28003KT 23/18 A3002 RMK A01 T02330181  RH  073%=      5-min Rain = 0
KQU1 110847Z 28003KT 23/18 A3002 RMK A01 T02320182  RH  073%=      5-min Rain = 0
KQU1 110848Z 29002KT 23/18 A3002 RMK A01 T02320182  RH  074%=      5-min Rain = 0
KQU1 110849Z 29003KT 23/18 A3002 RMK A01 T02320184  RH  075%=      5-min Rain = 0
KQU1 110850Z 29003KT 23/19 A3002 RMK A01 T02310185  RH  075%=      5-min Rain = 0
KQU1 110851Z 30003KT 23/19 A3002 RMK A01 T02310185  RH  075%=      5-min Rain = 0
KQU1 110852Z 30003KT 23/19 A3002 RMK A01 T02310185  RH  075%=      5-min Rain = 0
KQU1 110853Z 30003KT 23/19 A3002 RMK A01 T02300185  RH  075%=      5-min Rain = 0
KQU1 110854Z 29002KT 23/19 A3002 RMK A01 T02300185  RH  075%=      5-min Rain = 0
KQU1 110855Z 29001KT 23/18 A3002 RMK A01 T02300184  RH  075%=      5-min Rain = 0
KQU1 110856Z 29002KT 23/18 A3002 RMK A01 T02300184  RH  075%=      5-min Rain = 0
KQU1 110857Z 29003KT 23/18 A3002 RMK A01 T02300184  RH  075%=      5-min Rain = 0
KQU1 110858Z 30002KT 23/18 A3002 RMK A01 T02300184  RH  075%=      5-min Rain = 0
KQU1 110859Z 30002KT 23/18 A3002 RMK A01 T02300184  RH  075%=      5-min Rain = 0
KQU1 110900Z 30003KT 23/18 A3002 RMK A01 T02300184  RH  075%=      5-min Rain = 0
KQU1 110901Z 31003KT 23/18 A3002 RMK A01 T02300184  RH  075%=      5-min Rain = 0
KQU1 110902Z 30003KT 23/18 A3002 RMK A01 T02300184  RH  075%=      5-min Rain = 0
KQU1 110903Z 30003KT 23/18 A3002 RMK A01 T02300183  RH  075%=      5-min Rain = 0
KQU1 110904Z 30003KT 23/18 A3002 RMK A01 T02290184  RH  075%=      5-min Rain = 0
KQU1 110905Z 30003KT 23/18 A3002 RMK A01 T02290184  RH  076%=      5-min Rain = 0
KQU1 110906Z 30003KT 23/19 A3002 RMK A01 T02290185  RH  076%=      5-min Rain = 0
KQU1 110907Z 31003KT 23/19 A3002 RMK A01 T02290185  RH  076%=      5-min Rain = 0
KQU1 110908Z 31003KT 23/19 A3002 RMK A01 T02290185  RH  076%=      5-min Rain = 0
KQU1 110909Z 31003KT 23/19 A3002 RMK A01 T02290185  RH  076%=      5-min Rain = 0
KQU1 110910Z 31002KT 23/19 A3002 RMK A01 T02290185  RH  076%=      5-min Rain = 0
KQU1 110911Z 30002KT 23/19 A3002 RMK A01 T02290185  RH  076%=      5-min Rain = 0
KQU1 110912Z 31002KT 23/19 A3002 RMK A01 T02290185  RH  076%=      5-min Rain = 0
KQU1 110913Z 31002KT 23/19 A3002 RMK A01 T02290185  RH  076%=      5-min Rain = 0
KQU1 110914Z 31002KT 23/19 A3002 RMK A01 T02290185  RH  076%=      5-min Rain = 0
KQU1 110915Z 31001KT 23/19 A3002 RMK A01 T02290185  RH  076%=      5-min Rain = 0
KQU1 110916Z 30000KT 23/18 A3002 RMK A01 T02290184  RH  076%=      5-min Rain = 0
KQU1 110917Z 30000KT 23/18 A3002 RMK A01 T02290183  RH  075%=      5-min Rain = 0
KQU1 110918Z 30001KT 23/18 A3002 RMK A01 T02290182  RH  075%=      5-min Rain = 0
KQU1 110919Z 29002KT 23/18 A3002 RMK A01 T02290182  RH  075%=      5-min Rain = 0
KQU1 110920Z 29002KT 23/18 A3002 RMK A01 T02290181  RH  075%=      5-min Rain = 0
KQU1 110921Z 30002KT 23/18 A3002 RMK A01 T02280181  RH  075%=      5-min Rain = 0
KQU1 110922Z 30002KT 23/18 A3002 RMK A01 T02280181  RH  075%=      5-min Rain = 0
KQU1 110923Z 30002KT 23/18 A3002 RMK A01 T02270181  RH  075%=      5-min Rain = 0
KQU1 110924Z 30003KT 23/18 A3002 RMK A01 T02270182  RH  076%=      5-min Rain = 0
KQU1 110925Z 29003KT 23/18 A3002 RMK A01 T02260181  RH  076%=      5-min Rain = 0
KQU1 110926Z 29003KT 23/18 A3002 RMK A01 T02260181  RH  076%=      5-min Rain = 0
KQU1 110927Z 29002KT 23/18 A3002 RMK A01 T02260182  RH  076%=      5-min Rain = 0
KQU1 110928Z 29003KT 23/18 A3002 RMK A01 T02260182  RH  076%=      5-min Rain = 0
KQU1 110929Z 28003KT 23/18 A3002 RMK A01 T02260181  RH  076%=      5-min Rain = 0
KQU1 110930Z 28003KT 23/18 A3002 RMK A01 T02260181  RH  076%=      5-min Rain = 0
KQU1 110931Z 28003KT 23/18 A3002 RMK A01 T02260180  RH  075%=      5-min Rain = 0
KQU1 110932Z 27003KT 23/18 A3002 RMK A01 T02260180  RH  075%=      5-min Rain = 0
KQU1 110933Z 27003KT 23/18 A3002 RMK A01 T02270180  RH  075%=      5-min Rain = 0
KQU1 110934Z 27002KT 23/18 A3002 RMK A01 T02270180  RH  075%=      5-min Rain = 0
KQU1 110935Z 26002KT 23/18 A3002 RMK A01 T02270180  RH  075%=      5-min Rain = 0
KQU1 110936Z 26002KT 23/18 A3002 RMK A01 T02260180  RH  075%=      5-min Rain = 0
KQU1 110937Z 27003KT 23/18 A3002 RMK A01 T02260180  RH  075%=      5-min Rain = 0
KQU1 110938Z 27003KT 23/18 A3002 RMK A01 T02250180  RH  075%=      5-min Rain = 0
KQU1 110939Z 27003KT 23/18 A3002 RMK A01 T02250180  RH  075%=      5-min Rain = 0
KQU1 110940Z 27003KT 23/18 A3002 RMK A01 T02250180  RH  076%=      5-min Rain = 0
KQU1 110941Z 27003KT 22/18 A3002 RMK A01 T02240180  RH  076%=      5-min Rain = 0
KQU1 110942Z 27003KT 22/18 A3002 RMK A01 T02240180  RH  076%=      5-min Rain = 0
KQU1 110943Z 27003KT 22/18 A3002 RMK A01 T02240180  RH  076%=      5-min Rain = 0
KQU1 110944Z 28003KT 22/18 A3002 RMK A01 T02240181  RH  076%=      5-min Rain = 0
KQU1 110945Z 28003KT 22/18 A3002 RMK A01 T02240181  RH  076%=      5-min Rain = 0
KQU1 110946Z 29004KT 23/18 A3002 RMK A01 T02250181  RH  076%=      5-min Rain = 0
KQU1 110947Z 29004KT 22/18 A3002 RMK A01 T02240181  RH  076%=      5-min Rain = 0
KQU1 110948Z 29004KT 22/18 A3002 RMK A01 T02240182  RH  077%=      5-min Rain = 0
KQU1 110949Z 29004KT 22/18 A3002 RMK A01 T02240182  RH  077%=      5-min Rain = 0
KQU1 110950Z 29004KT 22/18 A3002 RMK A01 T02230182  RH  078%=      5-min Rain = 0
KQU1 110951Z 29004KT 22/18 A3002 RMK A01 T02230182  RH  078%=      5-min Rain = 0
KQU1 110952Z 29004KT 22/18 A3002 RMK A01 T02230182  RH  078%=      5-min Rain = 0
KQU1 110953Z 29004KT 22/18 A3002 RMK A01 T02220182  RH  078%=      5-min Rain = 0
KQU1 110954Z 29003KT 22/18 A3002 RMK A01 T02220182  RH  078%=      5-min Rain = 0
KQU1 110955Z 29004KT 22/18 A3002 RMK A01 T02230181  RH  077%=      5-min Rain = 0
KQU1 110956Z 29004KT 22/18 A3002 RMK A01 T02230181  RH  077%=      5-min Rain = 0
KQU1 110957Z 29004KT 22/18 A3002 RMK A01 T02230181  RH  077%=      5-min Rain = 0
KQU1 110958Z 30004KT 22/18 A3002 RMK A01 T02230181  RH  077%=      5-min Rain = 0
KQU1 110959Z 30003KT 22/18 A3002 RMK A01 T02230181  RH  077%=      5-min Rain = 0
KQU1 111000Z 30003KT 22/18 A3002 RMK A01 T02230181  RH  077%=      5-min Rain = 0
KQU1 111001Z 30003KT 22/18 A3002 RMK A01 T02230181  RH  077%=      5-min Rain = 0
KQU1 111002Z 30003KT 22/18 A3002 RMK A01 T02230181  RH  077%=      5-min Rain = 0
KQU1 111003Z 30003KT 22/18 A3002 RMK A01 T02230182  RH  078%=      5-min Rain = 0
KQU1 111004Z 30003KT 22/18 A3002 RMK A01 T02230182  RH  078%=      5-min Rain = 0
KQU1 111005Z 31003KT 22/18 A3002 RMK A01 T02230183  RH  078%=      5-min Rain = 0
KQU1 111006Z 31003KT 22/18 A3002 RMK A01 T02220183  RH  078%=      5-min Rain = 0
KQU1 111007Z 31003KT 22/18 A3002 RMK A01 T02220183  RH  078%=      5-min Rain = 0
KQU1 111008Z 30003KT 22/18 A3002 RMK A01 T02220183  RH  079%=      5-min Rain = 0
KQU1 111009Z 30003KT 22/18 A3002 RMK A01 T02220184  RH  079%=      5-min Rain = 0
KQU1 111010Z 30004KT 22/18 A3002 RMK A01 T02220183  RH  079%=      5-min Rain = 0
KQU1 111011Z 31003KT 22/18 A3002 RMK A01 T02220183  RH  079%=      5-min Rain = 0
KQU1 111012Z 31003KT 22/18 A3002 RMK A01 T02220183  RH  079%=      5-min Rain = 0
KQU1 111013Z 31003KT 22/18 A3002 RMK A01 T02210183  RH  079%=      5-min Rain = 0
KQU1 111014Z 31003KT 22/18 A3002 RMK A01 T02210183  RH  079%=      5-min Rain = 0
KQU1 111015Z 31004KT 22/18 A3002 RMK A01 T02210182  RH  079%=      5-min Rain = 0
KQU1 111016Z 30004KT 22/18 A3002 RMK A01 T02210182  RH  078%=      5-min Rain = 0
KQU1 111017Z 31005KT 22/18 A3002 RMK A01 T02210181  RH  078%=      5-min Rain = 0
KQU1 111018Z 31005KT 22/18 A3003 RMK A01 T02210181  RH  078%=      5-min Rain = 0
KQU1 111019Z 31004KT 22/18 A3003 RMK A01 T02210181  RH  078%=      5-min Rain = 0
KQU1 111020Z 31004KT 22/18 A3003 RMK A01 T02210181  RH  078%=      5-min Rain = 0
KQU1 111021Z 31003KT 22/18 A3003 RMK A01 T02210182  RH  078%=      5-min Rain = 0
KQU1 111022Z 31004KT 22/18 A3003 RMK A01 T02220182  RH  078%=      5-min Rain = 0
KQU1 111023Z 31004KT 22/18 A3003 RMK A01 T02220181  RH  078%=      5-min Rain = 0
KQU1 111024Z 32004KT 22/18 A3003 RMK A01 T02220181  RH  078%=      5-min Rain = 0
KQU1 111025Z 31004KT 22/18 A3003 RMK A01 T02220181  RH  078%=      5-min Rain = 0
KQU1 111026Z 31004KT 22/18 A3003 RMK A01 T02220181  RH  078%=      5-min Rain = 0
KQU1 111027Z 31004KT 22/18 A3003 RMK A01 T02220181  RH  078%=      5-min Rain = 0
KQU1 111028Z 32004KT 22/18 A3003 RMK A01 T02220181  RH  078%=      5-min Rain = 0
KQU1 111029Z 33004KT 22/18 A3003 RMK A01 T02220181  RH  077%=      5-min Rain = 0
KQU1 111030Z 34003KT 22/18 A3003 RMK A01 T02230181  RH  077%=      5-min Rain = 0
KQU1 111031Z 34002KT 22/18 A3003 RMK A01 T02240182  RH  077%=      5-min Rain = 0
KQU1 111032Z 34002KT 22/18 A3003 RMK A01 T02240182  RH  077%=      5-min Rain = 0
KQU1 111033Z 00002KT 23/18 A3003 RMK A01 T02250183  RH  077%=      5-min Rain = 0
KQU1 111034Z 01002KT 23/19 A3003 RMK A01 T02250185  RH  078%=      5-min Rain = 0
KQU1 111035Z 02002KT 23/19 A3003 RMK A01 T02250188  RH  079%=      5-min Rain = 0
KQU1 111036Z 03002KT 23/19 A3003 RMK A01 T02260188  RH  079%=      5-min Rain = 0
KQU1 111037Z 04002KT 23/19 A3003 RMK A01 T02260189  RH  080%=      5-min Rain = 0
KQU1 111038Z 05002KT 23/19 A3003 RMK A01 T02260189  RH  080%=      5-min Rain = 0
KQU1 111039Z 05003KT 23/19 A3003 RMK A01 T02250188  RH  079%=      5-min Rain = 0
KQU1 111040Z 05003KT 23/19 A3003 RMK A01 T02250188  RH  079%=      5-min Rain = 0
KQU1 111041Z 05002KT 23/19 A3003 RMK A01 T02250187  RH  079%=      5-min Rain = 0
KQU1 111042Z 05002KT 23/19 A3003 RMK A01 T02260187  RH  079%=      5-min Rain = 0
KQU1 111043Z 05003KT 23/19 A3003 RMK A01 T02260187  RH  079%=      5-min Rain = 0
KQU1 111044Z 05003KT 23/19 A3003 RMK A01 T02260188  RH  079%=      5-min Rain = 0
KQU1 111045Z 05003KT 23/19 A3003 RMK A01 T02270189  RH  079%=      5-min Rain = 0
KQU1 111046Z 05003KT 23/19 A3003 RMK A01 T02280189  RH  079%=      5-min Rain = 0
KQU1 111047Z 05004KT 23/19 A3003 RMK A01 T02290190  RH  079%=      5-min Rain = 0
KQU1 111048Z 05005KT 23/19 A3003 RMK A01 T02290190  RH  079%=      5-min Rain = 0
KQU1 111049Z 04005KT 23/19 A3003 RMK A01 T02300191  RH  079%=      5-min Rain = 0
KQU1 111050Z 04003KT 23/19 A3003 RMK A01 T02290191  RH  079%=      5-min Rain = 0
KQU1 111051Z 03003KT 23/19 A3004 RMK A01 T02290191  RH  079%=      5-min Rain = 0
KQU1 111052Z 01001KT 23/19 A3004 RMK A01 T02280191  RH  079%=      5-min Rain = 0
KQU1 111053Z 35001KT 23/19 A3004 RMK A01 T02270189  RH  079%=      5-min Rain = 0
KQU1 111054Z 36001KT 23/19 A3004 RMK A01 T02270186  RH  078%=      5-min Rain = 0
KQU1 111055Z 02001KT 23/19 A3004 RMK A01 T02260185  RH  077%=      5-min Rain = 0
KQU1 111056Z 02001KT 23/18 A3004 RMK A01 T02260183  RH  077%=      5-min Rain = 0
KQU1 111057Z 01001KT 23/18 A3004 RMK A01 T02250184  RH  077%=      5-min Rain = 0
KQU1 111058Z 00001KT 23/18 A3004 RMK A01 T02250184  RH  077%=      5-min Rain = 0
KQU1 111059Z 00002KT 23/18 A3004 RMK A01 T02250183  RH  077%=      5-min Rain = 0
KQU1 111100Z 35002KT 23/18 A3004 RMK A01 T02250183  RH  077%=      5-min Rain = 0
KQU1 111101Z 34002KT 23/18 A3004 RMK A01 T02250183  RH  077%=      5-min Rain = 0
KQU1 111102Z 34002KT 23/18 A3004 RMK A01 T02250183  RH  077%=      5-min Rain = 0
KQU1 111103Z 35003KT 23/18 A3004 RMK A01 T02250182  RH  077%=      5-min Rain = 0
KQU1 111104Z 36003KT 23/18 A3004 RMK A01 T02250182  RH  077%=      5-min Rain = 0
KQU1 111105Z 35002KT 23/18 A3004 RMK A01 T02250182  RH  077%=      5-min Rain = 0
KQU1 111106Z 34002KT 22/18 A3004 RMK A01 T02240182  RH  077%=      5-min Rain = 0
KQU1 111107Z 34003KT 22/18 A3004 RMK A01 T02240182  RH  077%=      5-min Rain = 0
KQU1 111108Z 34003KT 22/18 A3004 RMK A01 T02230182  RH  077%=      5-min Rain = 0
KQU1 111109Z 34003KT 22/18 A3004 RMK A01 T02230182  RH  078%=      5-min Rain = 0
KQU1 111110Z 34003KT 22/18 A3004 RMK A01 T02230182  RH  078%=      5-min Rain = 0
KQU1 111111Z 35003KT 22/18 A3004 RMK A01 T02230183  RH  078%=      5-min Rain = 0
KQU1 111112Z 35003KT 22/18 A3004 RMK A01 T02230183  RH  078%=      5-min Rain = 0
KQU1 111113Z 35002KT 22/18 A3005 RMK A01 T02230183  RH  078%=      5-min Rain = 0
KQU1 111114Z 35003KT 22/18 A3005 RMK A01 T02230184  RH  079%=      5-min Rain = 0
KQU1 111115Z 35002KT 22/18 A3005 RMK A01 T02230183  RH  078%=      5-min Rain = 0
KQU1 111116Z 00003KT 22/18 A3005 RMK A01 T02230183  RH  078%=      5-min Rain = 0
KQU1 111117Z 36003KT 22/18 A3005 RMK A01 T02220183  RH  079%=      5-min Rain = 0
KQU1 111118Z 35003KT 22/18 A3005 RMK A01 T02220184  RH  079%=      5-min Rain = 0
KQU1 111119Z 36003KT 22/19 A3005 RMK A01 T02220185  RH  079%=      5-min Rain = 0
KQU1 111120Z 36003KT 22/19 A3005 RMK A01 T02220185  RH  079%=      5-min Rain = 0
KQU1 111121Z 34002KT 22/19 A3005 RMK A01 T02230185  RH  079%=      5-min Rain = 0
KQU1 111122Z 33001KT 22/18 A3005 RMK A01 T02230184  RH  078%=      5-min Rain = 0
KQU1 111123Z 35002KT 22/18 A3005 RMK A01 T02220183  RH  078%=      5-min Rain = 0
KQU1 111124Z 36002KT 22/18 A3005 RMK A01 T02220183  RH  078%=      5-min Rain = 0
KQU1 111125Z 00002KT 22/18 A3005 RMK A01 T02220183  RH  079%=      5-min Rain = 0
KQU1 111126Z 01002KT 22/18 A3005 RMK A01 T02220183  RH  079%=      5-min Rain = 0
KQU1 111127Z 36002KT 22/18 A3005 RMK A01 T02220184  RH  079%=      5-min Rain = 0
KQU1 111128Z 36002KT 22/18 A3005 RMK A01 T02210183  RH  079%=      5-min Rain = 0
KQU1 111129Z 36002KT 22/18 A3005 RMK A01 T02210183  RH  079%=      5-min Rain = 0
KQU1 111130Z 34002KT 22/18 A3005 RMK A01 T02210183  RH  079%=      5-min Rain = 0
KQU1 111131Z 34002KT 22/18 A3005 RMK A01 T02200183  RH  079%=      5-min Rain = 0
KQU1 111132Z 35003KT 22/18 A3005 RMK A01 T02200183  RH  080%=      5-min Rain = 0
KQU1 111133Z 36003KT 22/18 A3005 RMK A01 T02190183  RH  080%=      5-min Rain = 0
KQU1 111134Z 34002KT 22/18 A3005 RMK A01 T02190183  RH  080%=      5-min Rain = 0
KQU1 111135Z 34002KT 22/18 A3005 RMK A01 T02190183  RH  080%=      5-min Rain = 0
KQU1 111136Z 36002KT 22/18 A3005 RMK A01 T02180183  RH  081%=      5-min Rain = 0
KQU1 111137Z 01002KT 22/18 A3005 RMK A01 T02180184  RH  081%=      5-min Rain = 0
KQU1 111138Z 35002KT 22/19 A3005 RMK A01 T02180185  RH  081%=      5-min Rain = 0
KQU1 111139Z 33002KT 22/18 A3005 RMK A01 T02170184  RH  081%=      5-min Rain = 0
KQU1 111140Z 33002KT 22/18 A3005 RMK A01 T02160182  RH  081%=      5-min Rain = 0
KQU1 111141Z 32002KT 22/18 A3005 RMK A01 T02150183  RH  082%=      5-min Rain = 0
KQU1 111142Z 33003KT 22/18 A3005 RMK A01 T02150183  RH  082%=      5-min Rain = 0
KQU1 111143Z 34002KT 21/18 A3005 RMK A01 T02140184  RH  083%=      5-min Rain = 0
KQU1 111144Z 33002KT 21/18 A3005 RMK A01 T02140184  RH  083%=      5-min Rain = 0
KQU1 111145Z 32002KT 21/18 A3005 RMK A01 T02140184  RH  083%=      5-min Rain = 0
KQU1 111146Z 32002KT 21/18 A3005 RMK A01 T02140184  RH  083%=      5-min Rain = 0
KQU1 111147Z 32002KT 21/19 A3005 RMK A01 T02140185  RH  083%=      5-min Rain = 0
KQU1 111148Z 31002KT 21/19 A3005 RMK A01 T02130185  RH  084%=      5-min Rain = 0
KQU1 111149Z 31003KT 21/19 A3005 RMK A01 T02130185  RH  084%=      5-min Rain = 0
KQU1 111150Z 30003KT 21/18 A3006 RMK A01 T02130184  RH  084%=      5-min Rain = 0
KQU1 111151Z 30002KT 21/18 A3006 RMK A01 T02130184  RH  083%=      5-min Rain = 0
KQU1 111152Z 31002KT 21/18 A3006 RMK A01 T02130184  RH  083%=      5-min Rain = 0
KQU1 111153Z 29002KT 21/18 A3006 RMK A01 T02130184  RH  083%=      5-min Rain = 0
KQU1 111154Z 29003KT 21/18 A3006 RMK A01 T02130184  RH  083%=      5-min Rain = 0
KQU1 111155Z 30002KT 21/18 A3006 RMK A01 T02130184  RH  083%=      5-min Rain = 0
KQU1 111156Z 31001KT 21/18 A3006 RMK A01 T02140184  RH  083%=      5-min Rain = 0
KQU1 111157Z 31001KT 21/18 A3006 RMK A01 T02140184  RH  083%=      5-min Rain = 0
KQU1 111158Z 30001KT 21/18 A3006 RMK A01 T02140184  RH  083%=      5-min Rain = 0
KQU1 111159Z 31001KT 21/18 A3006 RMK A01 T02140183  RH  082%=      5-min Rain = 0
KQU1 111200Z 31001KT 21/18 A3006 RMK A01 T02140183  RH  082%=      5-min Rain = 0
KQU1 111201Z 30001KT 21/18 A3006 RMK A01 T02140183  RH  082%=      5-min Rain = 0
KQU1 111202Z 30001KT 21/18 A3006 RMK A01 T02140182  RH  082%=      5-min Rain = 0
KQU1 111203Z 29002KT 21/18 A3006 RMK A01 T02140182  RH  082%=      5-min Rain = 0
KQU1 111204Z 28002KT 21/18 A3006 RMK A01 T02140182  RH  082%=      5-min Rain = 0
KQU1 111205Z 29002KT 21/18 A3006 RMK A01 T02140182  RH  082%=      5-min Rain = 0
KQU1 111206Z 30001KT 21/18 A3006 RMK A01 T02130182  RH  082%=      5-min Rain = 0
KQU1 111207Z 29001KT 21/18 A3006 RMK A01 T02140182  RH  082%=      5-min Rain = 0
KQU1 111208Z 28002KT 21/18 A3006 RMK A01 T02140182  RH  082%=      5-min Rain = 0
KQU1 111209Z 28002KT 21/18 A3005 RMK A01 T02130182  RH  082%=      5-min Rain = 0
KQU1 111210Z 27002KT 21/18 A3005 RMK A01 T02130182  RH  082%=      5-min Rain = 0
KQU1 111211Z 27002KT 21/18 A3005 RMK A01 T02130182  RH  082%=      5-min Rain = 0
KQU1 111212Z 27002KT 21/18 A3005 RMK A01 T02130182  RH  082%=      5-min Rain = 0
KQU1 111213Z 27002KT 21/18 A3005 RMK A01 T02130182  RH  082%=      5-min Rain = 0
KQU1 111214Z 27002KT 21/18 A3006 RMK A01 T02140182  RH  082%=      5-min Rain = 0
KQU1 111215Z 27002KT 21/18 A3006 RMK A01 T02140182  RH  082%=      5-min Rain = 0
KQU1 111216Z 27003KT 21/18 A3006 RMK A01 T02140182  RH  082%=      5-min Rain = 0
KQU1 111217Z 27003KT 22/18 A3006 RMK A01 T02150182  RH  082%=      5-min Rain = 0
KQU1 111218Z 27003KT 22/18 A3006 RMK A01 T02150183  RH  082%=      5-min Rain = 0
KQU1 111219Z 26003KT 22/18 A3006 RMK A01 T02160183  RH  082%=      5-min Rain = 0
KQU1 111220Z 25002KT 22/18 A3006 RMK A01 T02170183  RH  081%=      5-min Rain = 0
KQU1 111221Z 25002KT 22/18 A3006 RMK A01 T02180184  RH  081%=      5-min Rain = 0
KQU1 111222Z 25003KT 22/18 A3006 RMK A01 T02190184  RH  081%=      5-min Rain = 0
KQU1 111223Z 25003KT 22/18 A3006 RMK A01 T02200184  RH  080%=      5-min Rain = 0
KQU1 111224Z 24002KT 22/18 A3006 RMK A01 T02200184  RH  080%=      5-min Rain = 0
KQU1 111225Z 24002KT 22/19 A3006 RMK A01 T02210185  RH  080%=      5-min Rain = 0
KQU1 111226Z 24003KT 22/19 A3006 RMK A01 T02220186  RH  080%=      5-min Rain = 0
KQU1 111227Z 23003KT 22/19 A3006 RMK A01 T02240187  RH  080%=      5-min Rain = 0
KQU1 111228Z 23003KT 22/19 A3006 RMK A01 T02240187  RH  079%=      5-min Rain = 0
KQU1 111229Z 23003KT 23/19 A3006 RMK A01 T02250188  RH  079%=      5-min Rain = 0
KQU1 111230Z 22002KT 23/19 A3006 RMK A01 T02270189  RH  079%=      5-min Rain = 0
KQU1 111231Z 22003KT 23/19 A3006 RMK A01 T02280190  RH  079%=      5-min Rain = 0
KQU1 111232Z 21003KT 23/19 A3006 RMK A01 T02290190  RH  079%=      5-min Rain = 0
KQU1 111233Z 21003KT 23/19 A3006 RMK A01 T02300191  RH  079%=      5-min Rain = 0
KQU1 111234Z 21003KT 23/19 A3006 RMK A01 T02310192  RH  078%=      5-min Rain = 0
KQU1 111235Z 21003KT 23/19 A3006 RMK A01 T02330193  RH  078%=      5-min Rain = 0
KQU1 111236Z 21003KT 23/19 A3006 RMK A01 T02340194  RH  078%=      5-min Rain = 0
KQU1 111237Z 21003KT 24/19 A3006 RMK A01 T02360194  RH  077%=      5-min Rain = 0
KQU1 111238Z 20003KT 24/19 A3006 RMK A01 T02370194  RH  077%=      5-min Rain = 0
KQU1 111239Z 19003KT 24/20 A3006 RMK A01 T02390195  RH  076%=      5-min Rain = 0
KQU1 111240Z 19003KT 24/19 A3006 RMK A01 T02400194  RH  076%=      5-min Rain = 0
KQU1 111241Z 19003KT 24/19 A3006 RMK A01 T02410194  RH  075%=      5-min Rain = 0
KQU1 111242Z 19003KT 24/20 A3006 RMK A01 T02420195  RH  075%=      5-min Rain = 0
KQU1 111243Z 18003KT 24/20 A3006 RMK A01 T02430195  RH  075%=      5-min Rain = 0
KQU1 111244Z 19003KT 24/20 A3006 RMK A01 T02430196  RH  075%=      5-min Rain = 0
KQU1 111245Z 18003KT 24/20 A3006 RMK A01 T02430195  RH  075%=      5-min Rain = 0
KQU1 111246Z 18003KT 24/20 A3006 RMK A01 T02440196  RH  075%=      5-min Rain = 0
KQU1 111247Z 19003KT 24/20 A3006 RMK A01 T02440196  RH  074%=      5-min Rain = 0
KQU1 111248Z 19004KT 24/20 A3006 RMK A01 T02440195  RH  074%=      5-min Rain = 0
KQU1 111249Z 18004KT 24/20 A3006 RMK A01 T02440196  RH  074%=      5-min Rain = 0
KQU1 111250Z 19005KT 25/20 A3006 RMK A01 T02450195  RH  074%=      5-min Rain = 0
KQU1 111251Z 19005KT 25/20 A3006 RMK A01 T02450195  RH  074%=      5-min Rain = 0
KQU1 111252Z 19004KT 25/20 A3006 RMK A01 T02460195  RH  073%=      5-min Rain = 0
KQU1 111253Z 20005KT 25/20 A3006 RMK A01 T02460195  RH  073%=      5-min Rain = 0
KQU1 111254Z 20006KT 25/20 A3006 RMK A01 T02460195  RH  073%=      5-min Rain = 0
KQU1 111255Z 18004KT 25/20 A3006 RMK A01 T02460196  RH  073%=      5-min Rain = 0
KQU1 111256Z 19005KT 25/20 A3006 RMK A01 T02460196  RH  073%=      5-min Rain = 0
KQU1 111257Z 20006KT 25/20 A3006 RMK A01 T02460195  RH  073%=      5-min Rain = 0
KQU1 111258Z 20006KT 25/20 A3006 RMK A01 T02460195  RH  073%=      5-min Rain = 0
KQU1 111259Z 19004KT 25/20 A3006 RMK A01 T02460196  RH  073%=      5-min Rain = 0
KQU1 111300Z 18005KT 25/20 A3006 RMK A01 T02470196  RH  074%=      5-min Rain = 0
KQU1 111301Z 19006KT 25/20 A3006 RMK A01 T02470195  RH  073%=      5-min Rain = 0
KQU1 111302Z 19005KT 25/20 A3006 RMK A01 T02470196  RH  073%=      5-min Rain = 0
KQU1 111303Z 20005KT 25/20 A3006 RMK A01 T02480196  RH  073%=      5-min Rain = 0
KQU1 111304Z 18006KT 25/20 A3006 RMK A01 T02490196  RH  072%=      5-min Rain = 0
KQU1 111305Z 18006KT 25/20 A3006 RMK A01 T02490197  RH  073%=      5-min Rain = 0
KQU1 111306Z 18006KT 25/20 A3006 RMK A01 T02490196  RH  072%=      5-min Rain = 0
KQU1 111307Z 18006KT 25/20 A3006 RMK A01 T02490196  RH  072%=      5-min Rain = 0
KQU1 111308Z 19005KT 25/20 A3006 RMK A01 T02490196  RH  072%=      5-min Rain = 0
KQU1 111309Z 18005KT 25/20 A3006 RMK A01 T02500196  RH  072%=      5-min Rain = 0
KQU1 111310Z 18006KT 25/20 A3006 RMK A01 T02500196  RH  072%=      5-min Rain = 0
KQU1 111311Z 18006KT 25/20 A3006 RMK A01 T02510196  RH  072%=      5-min Rain = 0
KQU1 111312Z 19006KT 25/20 A3006 RMK A01 T02510196  RH  071%=      5-min Rain = 0
KQU1 111313Z 19006KT 25/20 A3006 RMK A01 T02510196  RH  071%=      5-min Rain = 0
KQU1 111314Z 18006KT 25/20 A3006 RMK A01 T02520195  RH  071%=      5-min Rain = 0
KQU1 111315Z 18006KT 25/20 A3006 RMK A01 T02520195  RH  070%=      5-min Rain = 0
KQU1 111316Z 18006KT 25/20 A3006 RMK A01 T02520195  RH  070%=      5-min Rain = 0
KQU1 111317Z 19006KT 25/19 A3006 RMK A01 T02520194  RH  070%=      5-min Rain = 0
KQU1 111318Z 20005KT 25/19 A3006 RMK A01 T02520194  RH  070%=      5-min Rain = 0
KQU1 111319Z 19005KT 25/20 A3006 RMK A01 T02520195  RH  071%=      5-min Rain = 0
KQU1 111320Z 19006KT 25/19 A3006 RMK A01 T02530194  RH  070%=      5-min Rain = 0
KQU1 111321Z 19006KT 25/19 A3006 RMK A01 T02540194  RH  070%=      5-min Rain = 0
KQU1 111322Z 20005KT 26/20 A3006 RMK A01 T02550195  RH  070%=      5-min Rain = 0
KQU1 111323Z 21005KT 26/20 A3006 RMK A01 T02560195  RH  069%=      5-min Rain = 0
KQU1 111324Z 20006KT 26/20 A3006 RMK A01 T02570195  RH  068%=      5-min Rain = 0
KQU1 111325Z 20005KT 26/20 A3006 RMK A01 T02580195  RH  068%=      5-min Rain = 0
KQU1 111326Z 20005KT 26/20 A3006 RMK A01 T02590196  RH  068%=      5-min Rain = 0
KQU1 111327Z 20005KT 26/20 A3006 RMK A01 T02600195  RH  068%=      5-min Rain = 0
KQU1 111328Z 20006KT 26/20 A3006 RMK A01 T02610195  RH  067%=      5-min Rain = 0
KQU1 111329Z 19006KT 26/19 A3006 RMK A01 T02620194  RH  066%=      5-min Rain = 0
KQU1 111330Z 20005KT 26/20 A3006 RMK A01 T02620195  RH  066%=      5-min Rain = 0
KQU1 111331Z 20005KT 26/19 A3006 RMK A01 T02630194  RH  066%=      5-min Rain = 0
KQU1 111332Z 19005KT 26/19 A3006 RMK A01 T02640193  RH  065%=      5-min Rain = 0
KQU1 111333Z 19005KT 27/19 A3006 RMK A01 T02650194  RH  065%=      5-min Rain = 0
KQU1 111334Z 20005KT 27/20 A3006 RMK A01 T02650195  RH  065%=      5-min Rain = 0
KQU1 111335Z 19005KT 27/19 A3006 RMK A01 T02660194  RH  064%=      5-min Rain = 0
KQU1 111336Z 20005KT 27/20 A3006 RMK A01 T02660195  RH  065%=      5-min Rain = 0
KQU1 111337Z 20006KT 27/19 A3006 RMK A01 T02670193  RH  064%=      5-min Rain = 0
KQU1 111338Z 20005KT 27/19 A3006 RMK A01 T02670194  RH  064%=      5-min Rain = 0
KQU1 111339Z 20005KT 27/19 A3006 RMK A01 T02680193  RH  064%=      5-min Rain = 0
KQU1 111340Z 19006KT 27/19 A3006 RMK A01 T02680193  RH  063%=      5-min Rain = 0
KQU1 111341Z 19005KT 27/19 A3006 RMK A01 T02690193  RH  063%=      5-min Rain = 0
KQU1 111342Z 19005KT 27/19 A3006 RMK A01 T02700194  RH  063%=      5-min Rain = 0
KQU1 111343Z 19005KT 27/19 A3006 RMK A01 T02710194  RH  063%=      5-min Rain = 0
KQU1 111344Z 19005KT 27/19 A3007 RMK A01 T02730191  RH  061%=      5-min Rain = 0
KQU1 111345Z 20005KT 27/20 A3006 RMK A01 T02740195  RH  062%=      5-min Rain = 0
KQU1 111346Z 18005KT 28/19 A3006 RMK A01 T02760192  RH  060%=      5-min Rain = 0
KQU1 111347Z 18005KT 28/19 A3006 RMK A01 T02760192  RH  060%=      5-min Rain = 0
KQU1 111348Z 19005KT 28/19 A3006 RMK A01 T02760194  RH  061%=      5-min Rain = 0
KQU1 111349Z 19006KT 28/19 A3006 RMK A01 T02760190  RH  059%=      5-min Rain = 0
KQU1 111350Z 18005KT 28/19 A3006 RMK A01 T02770188  RH  059%=      5-min Rain = 0
KQU1 111351Z 19006KT 28/19 A3006 RMK A01 T02770189  RH  059%=      5-min Rain = 0
KQU1 111352Z 19006KT 28/19 A3006 RMK A01 T02770188  RH  058%=      5-min Rain = 0
KQU1 111353Z 20005KT 28/19 A3006 RMK A01 T02780188  RH  058%=      5-min Rain = 0
KQU1 111354Z 19004KT 28/19 A3006 RMK A01 T02790189  RH  058%=      5-min Rain = 0
KQU1 111355Z 18006KT 28/19 A3006 RMK A01 T02790187  RH  057%=      5-min Rain = 0
KQU1 111356Z 18006KT 28/19 A3006 RMK A01 T02790186  RH  057%=      5-min Rain = 0
KQU1 111357Z 18005KT 28/19 A3006 RMK A01 T02790188  RH  058%=      5-min Rain = 0
KQU1 111358Z 18005KT 28/19 A3006 RMK A01 T02800189  RH  058%=      5-min Rain = 0
KQU1 111359Z 18006KT 28/19 A3006 RMK A01 T02810187  RH  057%=      5-min Rain = 0
KQU1 111400Z 18007KT 28/19 A3006 RMK A01 T02810186  RH  056%=      5-min Rain = 0
KQU1 111401Z 18006KT 28/18 A3006 RMK A01 T02800184  RH  056%=      5-min Rain = 0
KQU1 111402Z 18005KT 28/19 A3006 RMK A01 T02800187  RH  057%=      5-min Rain = 0
KQU1 111403Z 18006KT 28/19 A3006 RMK A01 T02800188  RH  057%=      5-min Rain = 0
KQU1 111404Z 18005KT 28/19 A3006 RMK A01 T02810188  RH  057%=      5-min Rain = 0
KQU1 111405Z 17005KT 28/19 A3006 RMK A01 T02810188  RH  057%=      5-min Rain = 0
KQU1 111406Z 17005KT 28/19 A3006 RMK A01 T02810189  RH  057%=      5-min Rain = 0
KQU1 111407Z 16005KT 28/19 A3006 RMK A01 T02810188  RH  057%=      5-min Rain = 0
KQU1 111408Z 16005KT 28/19 A3006 RMK A01 T02800188  RH  057%=      5-min Rain = 0
KQU1 111409Z 16005KT 28/19 A3007 RMK A01 T02810190  RH  058%=      5-min Rain = 0
KQU1 111410Z 15005KT 28/19 A3007 RMK A01 T02810189  RH  058%=      5-min Rain = 0
KQU1 111411Z 16004KT 28/19 A3007 RMK A01 T02810191  RH  058%=      5-min Rain = 0
KQU1 111412Z 16005KT 28/19 A3007 RMK A01 T02810188  RH  057%=      5-min Rain = 0
KQU1 111413Z 14004KT 28/19 A3007 RMK A01 T02800190  RH  058%=      5-min Rain = 0
KQU1 111414Z 14004KT 28/19 A3007 RMK A01 T02810190  RH  058%=      5-min Rain = 0
KQU1 111415Z 14004KT 28/19 A3007 RMK A01 T02820192  RH  058%=      5-min Rain = 0
KQU1 111416Z 14005KT 28/19 A3007 RMK A01 T02820192  RH  058%=      5-min Rain = 0
KQU1 111417Z 14004KT 28/19 A3007 RMK A01 T02830191  RH  057%=      5-min Rain = 0
KQU1 111418Z 14004KT 28/19 A3007 RMK A01 T02840191  RH  057%=      5-min Rain = 0
KQU1 111419Z 15005KT 29/19 A3007 RMK A01 T02860187  RH  055%=      5-min Rain = 0
KQU1 111420Z 15005KT 29/19 A3007 RMK A01 T02860186  RH  055%=      5-min Rain = 0
KQU1 111421Z 15005KT 29/19 A3007 RMK A01 T02870188  RH  055%=      5-min Rain = 0
KQU1 111422Z 15005KT 29/19 A3007 RMK A01 T02890187  RH  054%=      5-min Rain = 0
KQU1 111423Z 15005KT 29/19 A3007 RMK A01 T02910186  RH  053%=      5-min Rain = 0
KQU1 111424Z 17005KT 29/18 A3007 RMK A01 T02930183  RH  052%=      5-min Rain = 0
KQU1 111425Z 17005KT 29/18 A3007 RMK A01 T02940183  RH  051%=      5-min Rain = 0
KQU1 111426Z 18006KT 30/18 A3007 RMK A01 T02950183  RH  051%=      5-min Rain = 0
KQU1 111427Z 17003KT 30/19 A3007 RMK A01 T02970187  RH  052%=      5-min Rain = 0
KQU1 111428Z 17004KT 30/19 A3007 RMK A01 T03000186  RH  050%=      5-min Rain = 0
KQU1 111429Z 17005KT 30/19 A3007 RMK A01 T03020185  RH  050%=      5-min Rain = 0
KQU1 111430Z 20006KT 30/18 A3006 RMK A01 T03030182  RH  048%=      5-min Rain = 0
KQU1 111431Z 18005KT 30/18 A3006 RMK A01 T03030183  RH  049%=      5-min Rain = 0
KQU1 111432Z 18005KT 30/18 A3006 RMK A01 T03040182  RH  048%=      5-min Rain = 0
KQU1 111433Z 18006KT 31/18 A3006 RMK A01 T03050182  RH  048%=      5-min Rain = 0
KQU1 111434Z 17005KT 31/18 A3006 RMK A01 T03050184  RH  048%=      5-min Rain = 0
KQU1 111435Z 18004KT 31/18 A3006 RMK A01 T03060183  RH  048%=      5-min Rain = 0
KQU1 111436Z 18004KT 31/18 A3006 RMK A01 T03070183  RH  048%=      5-min Rain = 0
KQU1 111437Z 18004KT 31/19 A3006 RMK A01 T03080186  RH  048%=      5-min Rain = 0
KQU1 111438Z 17004KT 31/19 A3006 RMK A01 T03100186  RH  048%=      5-min Rain = 0
KQU1 111439Z 20004KT 31/19 A3006 RMK A01 T03120185  RH  047%=      5-min Rain = 0
KQU1 111440Z 20007KT 31/18 A3006 RMK A01 T03140176  RH  044%=      5-min Rain = 0
KQU1 111441Z 19007KT 32/18 A3006 RMK A01 T03160175  RH  043%=      5-min Rain = 0
KQU1 111442Z 20006KT 32/17 A3006 RMK A01 T03190173  RH  042%=      5-min Rain = 0
KQU1 111443Z 20008KT 32/17 A3006 RMK A01 T03220172  RH  041%=      5-min Rain = 0
KQU1 111444Z 21011KT 33/17 A3006 RMK A01 T03250166  RH  039%=      5-min Rain = 0
KQU1 111445Z 22007KT 33/17 A3006 RMK A01 T03270168  RH  039%=      5-min Rain = 0
KQU1 111446Z 20010KT 33/16 A3006 RMK A01 T03290161  RH  037%=      5-min Rain = 0
KQU1 111447Z 22011G16KT 33/15 A3006 RMK A01 T03310153  RH  034%=      5-min Rain = 0
KQU1 111448Z 23011G16KT 33/15 A3006 RMK A01 T03330154  RH  034%=      5-min Rain = 0
KQU1 111449Z 23016KT 33/15 A3006 RMK A01 T03340152  RH  033%=      5-min Rain = 0
KQU1 111450Z 23014KT 34/15 A3006 RMK A01 T03350152  RH  033%=      5-min Rain = 0
KQU1 111451Z 22013KT 34/15 A3006 RMK A01 T03360152  RH  033%=      5-min Rain = 0
KQU1 111452Z 21013KT 34/15 A3006 RMK A01 T03380152  RH  033%=      5-min Rain = 0
KQU1 111453Z 21013KT 34/15 A3006 RMK A01 T03380152  RH  033%=      5-min Rain = 0
KQU1 111454Z 22012KT 34/15 A3006 RMK A01 T03380153  RH  033%=      5-min Rain = 0
KQU1 111455Z 21010KT 34/15 A3006 RMK A01 T03390153  RH  033%=      5-min Rain = 0
KQU1 111456Z 22011KT 34/15 A3006 RMK A01 T03400152  RH  032%=      5-min Rain = 0
KQU1 111457Z 21013KT 34/15 A3006 RMK A01 T03400153  RH  033%=      5-min Rain = 0
KQU1 111458Z 22013KT 34/15 A3006 RMK A01 T03410151  RH  032%=      5-min Rain = 0
KQU1 111459Z 22012KT 34/15 A3006 RMK A01 T03400151  RH  032%=      5-min Rain = 0
KQU1 111500Z 22011KT 34/15 A3006 RMK A01 T03400152  RH  032%=      5-min Rain = 0
KQU1 111501Z 22010KT 34/15 A3006 RMK A01 T03410153  RH  032%=      5-min Rain = 0
KQU1 111502Z 21012KT 34/15 A3006 RMK A01 T03420152  RH  032%=      5-min Rain = 0
KQU1 111503Z 21012KT 34/15 A3006 RMK A01 T03420151  RH  032%=      5-min Rain = 0
KQU1 111504Z 21011KT 34/15 A3006 RMK A01 T03410152  RH  032%=      5-min Rain = 0
KQU1 111505Z 21012KT 34/15 A3006 RMK A01 T03410152  RH  032%=      5-min Rain = 0
KQU1 111506Z 22010KT 34/15 A3006 RMK A01 T03420154  RH  032%=      5-min Rain = 0
KQU1 111507Z 22009KT 34/15 A3006 RMK A01 T03430153  RH  032%=      5-min Rain = 0
KQU1 111508Z 23010KT 34/15 A3006 RMK A01 T03440154  RH  032%=      5-min Rain = 0
KQU1 111509Z 22010KT 35/15 A3006 RMK A01 T03450154  RH  032%=      5-min Rain = 0
KQU1 111510Z 22011KT 35/15 A3005 RMK A01 T03450154  RH  032%=      5-min Rain = 0
KQU1 111511Z 20013KT 35/15 A3005 RMK A01 T03450152  RH  032%=      5-min Rain = 0
KQU1 111512Z 21013KT 35/15 A3005 RMK A01 T03460152  RH  031%=      5-min Rain = 0
KQU1 111513Z 22010KT 35/15 A3005 RMK A01 T03460153  RH  032%=      5-min Rain = 0
KQU1 111514Z 22013KT 35/15 A3005 RMK A01 T03470153  RH  032%=      5-min Rain = 0
KQU1 111515Z 23013KT 35/15 A3005 RMK A01 T03460152  RH  031%=      5-min Rain = 0
KQU1 111516Z 22012KT 35/15 A3005 RMK A01 T03470152  RH  031%=      5-min Rain = 0
KQU1 111517Z 22012KT 35/15 A3005 RMK A01 T03460152  RH  031%=      5-min Rain = 0
KQU1 111518Z 23011KT 35/15 A3005 RMK A01 T03450153  RH  032%=      5-min Rain = 0
KQU1 111519Z 22008KT 35/15 A3005 RMK A01 T03450153  RH  032%=      5-min Rain = 0
KQU1 111520Z 22012KT 35/15 A3005 RMK A01 T03470154  RH  032%=      5-min Rain = 0
KQU1 111521Z 20013KT 35/15 A3005 RMK A01 T03480152  RH  031%=      5-min Rain = 0
KQU1 111522Z 21013KT 35/15 A3005 RMK A01 T03470153  RH  031%=      5-min Rain = 0
KQU1 111523Z 21013KT 35/15 A3005 RMK A01 T03450152  RH  032%=      5-min Rain = 0
KQU1 111524Z 23011G16KT 35/15 A3005 RMK A01 T03460152  RH  031%=      5-min Rain = 0
KQU1 111525Z 22013KT 35/15 A3005 RMK A01 T03470153  RH  031%=      5-min Rain = 0
KQU1 111526Z 23012KT 35/15 A3005 RMK A01 T03490153  RH  031%=      5-min Rain = 0
KQU1 111527Z 23012KT 35/15 A3005 RMK A01 T03490154  RH  031%=      5-min Rain = 0
KQU1 111528Z 23012KT 35/15 A3005 RMK A01 T03480153  RH  031%=      5-min Rain = 0
KQU1 111529Z 22013KT 35/15 A3005 RMK A01 T03470153  RH  031%=      5-min Rain = 0
KQU1 111530Z 23011KT 35/15 A3005 RMK A01 T03480153  RH  031%=      5-min Rain = 0
KQU1 111531Z 23012KT 35/15 A3005 RMK A01 T03480153  RH  031%=      5-min Rain = 0
KQU1 111532Z 23011KT 35/15 A3005 RMK A01 T03490153  RH  031%=      5-min Rain = 0
KQU1 111533Z 23010KT 35/15 A3005 RMK A01 T03490154  RH  031%=      5-min Rain = 0
KQU1 111534Z 23011KT 35/15 A3005 RMK A01 T03490153  RH  031%=      5-min Rain = 0
KQU1 111535Z 24007KT 35/15 A3005 RMK A01 T03500154  RH  031%=      5-min Rain = 0
KQU1 111536Z 22010KT 35/16 A3005 RMK A01 T03510155  RH  031%=      5-min Rain = 0
KQU1 111537Z 23010KT 35/16 A3005 RMK A01 T03520156  RH  031%=      5-min Rain = 0
KQU1 111538Z 21012KT 35/16 A3005 RMK A01 T03540156  RH  031%=      5-min Rain = 0
KQU1 111539Z 21010KT 35/16 A3005 RMK A01 T03540155  RH  031%=      5-min Rain = 0
KQU1 111540Z 20011KT 35/15 A3005 RMK A01 T03540153  RH  030%=      5-min Rain = 0
KQU1 111541Z 20010KT 35/15 A3005 RMK A01 T03530153  RH  030%=      5-min Rain = 0
KQU1 111542Z 20009KT 35/15 A3005 RMK A01 T03530152  RH  030%=      5-min Rain = 0
KQU1 111543Z 20011KT 35/15 A3005 RMK A01 T03540153  RH  030%=      5-min Rain = 0
KQU1 111544Z 21012KT 36/15 A3005 RMK A01 T03550152  RH  030%=      5-min Rain = 0
KQU1 111545Z 22010KT 35/15 A3005 RMK A01 T03540151  RH  030%=      5-min Rain = 0
KQU1 111546Z 21010KT 36/15 A3006 RMK A01 T03550150  RH  030%=      5-min Rain = 0
KQU1 111547Z 21010KT 35/15 A3006 RMK A01 T03540152  RH  030%=      5-min Rain = 0
KQU1 111548Z 21009KT 35/15 A3006 RMK A01 T03540152  RH  030%=      5-min Rain = 0
KQU1 111549Z 20008KT 36/15 A3006 RMK A01 T03550153  RH  030%=      5-min Rain = 0
KQU1 111550Z 21008KT 36/15 A3006 RMK A01 T03560154  RH  030%=      5-min Rain = 0
KQU1 111551Z 23008KT 36/15 A3006 RMK A01 T03570153  RH  030%=      5-min Rain = 0
KQU1 111552Z 24007KT 36/16 A3006 RMK A01 T03570155  RH  030%=      5-min Rain = 0
KQU1 111553Z 21011KT 36/15 A3005 RMK A01 T03580152  RH  029%=      5-min Rain = 0
KQU1 111554Z 20010KT 36/15 A3005 RMK A01 T03590151  RH  029%=      5-min Rain = 0
KQU1 111555Z 20010KT 36/15 A3006 RMK A01 T03600146  RH  028%=      5-min Rain = 0
KQU1 111556Z 20011KT 36/15 A3005 RMK A01 T03600150  RH  029%=      5-min Rain = 0
KQU1 111557Z 21013KT 36/15 A3005 RMK A01 T03590149  RH  029%=      5-min Rain = 0
KQU1 111558Z 21011KT 36/15 A3006 RMK A01 T03590148  RH  028%=      5-min Rain = 0
KQU1 111559Z 20011KT 36/15 A3005 RMK A01 T03590148  RH  029%=      5-min Rain = 0
KQU1 111600Z 21011KT 36/15 A3005 RMK A01 T03600148  RH  028%=      5-min Rain = 0
KQU1 111601Z 22009KT 36/15 A3006 RMK A01 T03630151  RH  028%=      5-min Rain = 0
KQU1 111602Z 22009KT 36/15 A3006 RMK A01 T03640150  RH  028%=      5-min Rain = 0
KQU1 111603Z 23007KT 36/15 A3006 RMK A01 T03630149  RH  028%=      5-min Rain = 0
KQU1 111604Z 21006KT 36/15 A3006 RMK A01 T03620149  RH  028%=      5-min Rain = 0
KQU1 111605Z 21011KT 36/15 A3006 RMK A01 T03630149  RH  028%=      5-min Rain = 0
KQU1 111606Z 21010KT 36/15 A3006 RMK A01 T03620149  RH  028%=      5-min Rain = 0
KQU1 111607Z 20008KT 36/15 A3006 RMK A01 T03610150  RH  029%=      5-min Rain = 0
KQU1 111608Z 20011KT 36/14 A3006 RMK A01 T03620143  RH  027%=      5-min Rain = 0
KQU1 111609Z 20010KT 36/14 A3006 RMK A01 T03630143  RH  027%=      5-min Rain = 0
KQU1 111610Z 20013KT 36/15 A3006 RMK A01 T03640145  RH  027%=      5-min Rain = 0
KQU1 111611Z 20012KT 36/15 A3006 RMK A01 T03630147  RH  028%=      5-min Rain = 0
KQU1 111612Z 20010KT 36/15 A3006 RMK A01 T03640147  RH  028%=      5-min Rain = 0
KQU1 111613Z 22011KT 36/14 A3006 RMK A01 T03640142  RH  027%=      5-min Rain = 0
KQU1 111614Z 22009KT 36/14 A3006 RMK A01 T03630144  RH  027%=      5-min Rain = 0
KQU1 111615Z 23007KT 36/15 A3006 RMK A01 T03630145  RH  027%=      5-min Rain = 0
KQU1 111616Z 23010KT 36/15 A3006 RMK A01 T03640147  RH  028%=      5-min Rain = 0
KQU1 111617Z 23009KT 37/15 A3006 RMK A01 T03650146  RH  027%=      5-min Rain = 0
KQU1 111618Z 22006KT 37/15 A3006 RMK A01 T03660146  RH  027%=      5-min Rain = 0
KQU1 111619Z 22006KT 37/15 A3006 RMK A01 T03650146  RH  027%=      5-min Rain = 0
KQU1 111620Z 22005KT 36/15 A3006 RMK A01 T03640149  RH  028%=      5-min Rain = 0
KQU1 111621Z 18008KT 37/15 A3006 RMK A01 T03660147  RH  027%=      5-min Rain = 0
KQU1 111622Z 20009KT 37/14 A3006 RMK A01 T03660143  RH  027%=      5-min Rain = 0
KQU1 111623Z 20011KT 37/14 A3006 RMK A01 T03670141  RH  026%=      5-min Rain = 0
KQU1 111624Z 22011KT 37/14 A3006 RMK A01 T03670141  RH  026%=      5-min Rain = 0
KQU1 111625Z 21006KT 37/14 A3006 RMK A01 T03660143  RH  026%=      5-min Rain = 0
KQU1 111626Z 21007KT 37/14 A3006 RMK A01 T03650143  RH  027%=      5-min Rain = 0
KQU1 111627Z 21010KT 37/14 A3006 RMK A01 T03660139  RH  026%=      5-min Rain = 0
KQU1 111628Z 20011KT 37/14 A3006 RMK A01 T03680141  RH  026%=      5-min Rain = 0
KQU1 111629Z 20010KT 37/14 A3006 RMK A01 T03690143  RH  026%=      5-min Rain = 0
KQU1 111630Z 19010KT 37/15 A3006 RMK A01 T03680146  RH  027%=      5-min Rain = 0
KQU1 111631Z 20009KT 37/15 A3006 RMK A01 T03690146  RH  027%=      5-min Rain = 0
KQU1 111632Z 18009KT 37/15 A3006 RMK A01 T03700145  RH  026%=      5-min Rain = 0
KQU1 111633Z 20010KT 37/15 A3006 RMK A01 T03700147  RH  027%=      5-min Rain = 0
KQU1 111634Z 22010KT 37/14 A3006 RMK A01 T03720143  RH  026%=      5-min Rain = 0
KQU1 111635Z 21009KT 37/14 A3006 RMK A01 T03730143  RH  026%=      5-min Rain = 0
KQU1 111636Z 20008KT 37/14 A3006 RMK A01 T03720143  RH  026%=      5-min Rain = 0
KQU1 111637Z 19011KT 37/15 A3006 RMK A01 T03720146  RH  026%=      5-min Rain = 0
KQU1 111638Z 17008KT 37/15 A3006 RMK A01 T03720150  RH  027%=      5-min Rain = 0
KQU1 111639Z 18008KT 37/15 A3006 RMK A01 T03710152  RH  027%=      5-min Rain = 0
KQU1 111640Z 18008KT 37/15 A3006 RMK A01 T03730147  RH  026%=      5-min Rain = 0
KQU1 111641Z 19008KT 37/15 A3006 RMK A01 T03730146  RH  026%=      5-min Rain = 0
KQU1 111642Z 22010KT 37/15 A3006 RMK A01 T03740147  RH  026%=      5-min Rain = 0
KQU1 111643Z 22008KT 38/15 A3006 RMK A01 T03760145  RH  025%=      5-min Rain = 0
KQU1 111644Z 22009KT 38/14 A3006 RMK A01 T03780143  RH  025%=      5-min Rain = 0
KQU1 111645Z 22008KT 38/14 A3006 RMK A01 T03770143  RH  025%=      5-min Rain = 0
KQU1 111646Z 21007KT 38/14 A3006 RMK A01 T03770144  RH  025%=      5-min Rain = 0
KQU1 111647Z 21008KT 38/14 A3006 RMK A01 T03760144  RH  025%=      5-min Rain = 0
KQU1 111648Z 18007KT 38/15 A3006 RMK A01 T03770151  RH  026%=      5-min Rain = 0
KQU1 111649Z 20009KT 38/15 A3006 RMK A01 T03790146  RH  025%=      5-min Rain = 0
KQU1 111650Z 20012KT 38/14 A3006 RMK A01 T03810142  RH  024%=      5-min Rain = 0
KQU1 111651Z 20007KT 38/14 A3006 RMK A01 T03800141  RH  024%=      5-min Rain = 0
KQU1 111652Z 19010KT 38/14 A3006 RMK A01 T03790144  RH  025%=      5-min Rain = 0
KQU1 111653Z 19010KT 38/14 A3006 RMK A01 T03790140  RH  024%=      5-min Rain = 0
KQU1 111654Z 19008KT 38/14 A3006 RMK A01 T03780141  RH  025%=      5-min Rain = 0
KQU1 111655Z 18009KT 38/15 A3006 RMK A01 T03800145  RH  025%=      5-min Rain = 0
KQU1 111656Z 18010KT 38/15 A3006 RMK A01 T03790146  RH  025%=      5-min Rain = 0
KQU1 111657Z 17007KT 38/15 A3006 RMK A01 T03780150  RH  026%=      5-min Rain = 0
KQU1 111658Z 19007KT 38/15 A3006 RMK A01 T03780149  RH  026%=      5-min Rain = 0
KQU1 111659Z 19006KT 38/14 A3006 RMK A01 T03800141  RH  024%=      5-min Rain = 0
KQU1 111700Z 17007KT 38/15 A3006 RMK A01 T03810149  RH  025%=      5-min Rain = 0
KQU1 111701Z 21009KT 38/15 A3006 RMK A01 T03810146  RH  025%=      5-min Rain = 0
KQU1 111702Z 23008KT 38/14 A3006 RMK A01 T03810139  RH  024%=      5-min Rain = 0
KQU1 111703Z 24005KT 38/14 A3006 RMK A01 T03790139  RH  024%=      5-min Rain = 0
KQU1 111704Z 23005KT 38/14 A3006 RMK A01 T03780142  RH  025%=      5-min Rain = 0
KQU1 111705Z 20010KT 38/14 A3006 RMK A01 T03790142  RH  025%=      5-min Rain = 0
KQU1 111706Z 19008KT 38/14 A3006 RMK A01 T03790142  RH  025%=      5-min Rain = 0
KQU1 111707Z 20007KT 38/14 A3006 RMK A01 T03790143  RH  025%=      5-min Rain = 0
KQU1 111708Z 18007KT 38/15 A3006 RMK A01 T03780149  RH  026%=      5-min Rain = 0
KQU1 111709Z 17008KT 38/15 A3006 RMK A01 T03800148  RH  025%=      5-min Rain = 0
KQU1 111710Z 14008KT 38/15 A3006 RMK A01 T03810150  RH  026%=      5-min Rain = 0
KQU1 111711Z 17008KT 38/15 A3006 RMK A01 T03810151  RH  026%=      5-min Rain = 0
KQU1 111712Z 17010KT 38/15 A3006 RMK A01 T03810151  RH  026%=      5-min Rain = 0
KQU1 111713Z 15007KT 38/15 A3006 RMK A01 T03810148  RH  025%=      5-min Rain = 0
KQU1 111714Z 14008KT 38/15 A3006 RMK A01 T03820150  RH  026%=      5-min Rain = 0
KQU1 111715Z 18010KT 38/15 A3006 RMK A01 T03820146  RH  025%=      5-min Rain = 0
KQU1 111716Z 19010KT 38/14 A3006 RMK A01 T03830137  RH  023%=      5-min Rain = 0
KQU1 111717Z 18008KT 38/14 A3006 RMK A01 T03830144  RH  024%=      5-min Rain = 0
KQU1 111718Z 16009KT 39/15 A3006 RMK A01 T03860147  RH  024%=      5-min Rain = 0
KQU1 111719Z 16007KT 39/15 A3006 RMK A01 T03850145  RH  024%=      5-min Rain = 0
KQU1 111720Z 16006KT 39/15 A3006 RMK A01 T03850149  RH  025%=      5-min Rain = 0
KQU1 111721Z 16006KT 38/15 A3006 RMK A01 T03840149  RH  025%=      5-min Rain = 0
KQU1 111722Z 15006KT 38/16 A3006 RMK A01 T03840156  RH  026%=      5-min Rain = 0
KQU1 111723Z 18009KT 39/15 A3005 RMK A01 T03860146  RH  024%=      5-min Rain = 0
KQU1 111724Z 19010KT 39/14 A3005 RMK A01 T03860140  RH  023%=      5-min Rain = 0
KQU1 111725Z 18008KT 39/14 A3005 RMK A01 T03870142  RH  024%=      5-min Rain = 0
KQU1 111726Z 19009KT 39/14 A3005 RMK A01 T03880144  RH  024%=      5-min Rain = 0
KQU1 111727Z 18010KT 39/14 A3005 RMK A01 T03870139  RH  023%=      5-min Rain = 0
KQU1 111728Z 19006KT 39/14 A3005 RMK A01 T03850137  RH  023%=      5-min Rain = 0
KQU1 111729Z 16006KT 39/14 A3005 RMK A01 T03850143  RH  024%=      5-min Rain = 0
KQU1 111730Z 16009KT 39/15 A3005 RMK A01 T03850145  RH  024%=      5-min Rain = 0
KQU1 111731Z 16012KT 38/14 A3005 RMK A01 T03840140  RH  024%=      5-min Rain = 0
KQU1 111732Z 17009KT 38/13 A3005 RMK A01 T03840131  RH  022%=      5-min Rain = 0
KQU1 111733Z 17011KT 39/14 A3005 RMK A01 T03860137  RH  023%=      5-min Rain = 0
KQU1 111734Z 16014KT 39/14 A3005 RMK A01 T03870138  RH  023%=      5-min Rain = 0
KQU1 111735Z 16011KT 39/14 A3005 RMK A01 T03870142  RH  024%=      5-min Rain = 0
KQU1 111736Z 16009KT 39/14 A3004 RMK A01 T03860143  RH  024%=      5-min Rain = 0
KQU1 111737Z 16009KT 39/15 A3004 RMK A01 T03850145  RH  024%=      5-min Rain = 0
KQU1 111738Z 17007KT 39/13 A3004 RMK A01 T03860134  RH  022%=      5-min Rain = 0
KQU1 111739Z 21009G15KT 39/13 A3004 RMK A01 T03860129  RH  022%=      5-min Rain = 0
KQU1 111740Z 20012KT 39/13 A3004 RMK A01 T03880129  RH  021%=      5-min Rain = 0
KQU1 111741Z 19011KT 39/13 A3004 RMK A01 T03890130  RH  022%=      5-min Rain = 0
KQU1 111742Z 18010KT 39/13 A3004 RMK A01 T03890133  RH  022%=      5-min Rain = 0
KQU1 111743Z 17011KT 39/14 A3004 RMK A01 T03900135  RH  022%=      5-min Rain = 0
KQU1 111744Z 18012KT 39/13 A3004 RMK A01 T03890133  RH  022%=      5-min Rain = 0
KQU1 111745Z 17011KT 39/13 A3004 RMK A01 T03870134  RH  022%=      5-min Rain = 0
KQU1 111746Z 17009KT 39/13 A3004 RMK A01 T03870130  RH  022%=      5-min Rain = 0
KQU1 111747Z 17010KT 39/14 A3004 RMK A01 T03870135  RH  022%=      5-min Rain = 0
KQU1 111748Z 17014KT 39/13 A3004 RMK A01 T03880132  RH  022%=      5-min Rain = 0
KQU1 111749Z 16011KT 39/14 A3004 RMK A01 T03870135  RH  022%=      5-min Rain = 0
KQU1 111750Z 17011KT 39/14 A3004 RMK A01 T03860138  RH  023%=      5-min Rain = 0
KQU1 111751Z 16011KT 39/14 A3004 RMK A01 T03870138  RH  023%=      5-min Rain = 0
KQU1 111752Z 16008KT 39/14 A3004 RMK A01 T03870140  RH  023%=      5-min Rain = 0
KQU1 111753Z 21005KT 39/13 A3004 RMK A01 T03880133  RH  022%=      5-min Rain = 0
KQU1 111754Z 20012KT 39/12 A3004 RMK A01 T03910116  RH  019%=      5-min Rain = 0
KQU1 111755Z 19012KT 39/11 A3004 RMK A01 T03920113  RH  019%=      5-min Rain = 0
KQU1 111756Z 21012KT 39/12 A3004 RMK A01 T03940119  RH  019%=      5-min Rain = 0
KQU1 111757Z 21009KT 40/12 A3004 RMK A01 T03970121  RH  019%=      5-min Rain = 0
KQU1 111758Z 18007KT 40/13 A3004 RMK A01 T03970125  RH  020%=      5-min Rain = 0
KQU1 111759Z 18005KT 40/13 A3004 RMK A01 T03970126  RH  020%=      5-min Rain = 0
KQU1 111800Z 18009G15KT 40/12 A3004 RMK A01 T03960124  RH  020%=      5-min Rain = 0
KQU1 111801Z 18012KT 40/12 A3004 RMK A01 T03970118  RH  019%=      5-min Rain = 0
KQU1 111802Z 19013KT 40/11 A3004 RMK A01 T03970111  RH  018%=      5-min Rain = 0
KQU1 111803Z 19011KT 40/11 A3004 RMK A01 T03980112  RH  018%=      5-min Rain = 0
KQU1 111804Z 19014KT 40/11 A3004 RMK A01 T04010110  RH  018%=      5-min Rain = 0
KQU1 111805Z 18010KT 40/11 A3004 RMK A01 T04020111  RH  018%=      5-min Rain = 0
KQU1 111806Z 20012G17KT 40/11 A3004 RMK A01 T04000111  RH  018%=      5-min Rain = 0
KQU1 111807Z 20014KT 40/11 A3004 RMK A01 T03970112  RH  018%=      5-min Rain = 0
KQU1 111808Z 19011KT 40/11 A3004 RMK A01 T03960113  RH  018%=      5-min Rain = 0
KQU1 111809Z 20008KT 40/11 A3004 RMK A01 T03950109  RH  018%=      5-min Rain = 0
KQU1 111810Z 20009KT 39/11 A3004 RMK A01 T03930112  RH  019%=      5-min Rain = 0
KQU1 111811Z 18011KT 39/12 A3004 RMK A01 T03930120  RH  020%=      5-min Rain = 0
KQU1 111812Z 16009KT 39/13 A3004 RMK A01 T03940127  RH  021%=      5-min Rain = 0
KQU1 111813Z 18012KT 39/13 A3004 RMK A01 T03940128  RH  021%=      5-min Rain = 0
KQU1 111814Z 18012KT 40/13 A3004 RMK A01 T03950125  RH  020%=      5-min Rain = 0
KQU1 111815Z 17013G18KT 40/12 A3004 RMK A01 T03960124  RH  020%=      5-min Rain = 0
KQU1 111816Z 17013KT 40/12 A3004 RMK A01 T03960123  RH  020%=      5-min Rain = 0
KQU1 111817Z 17013G18KT 39/13 A3004 RMK A01 T03940128  RH  021%=      5-min Rain = 0
KQU1 111818Z 17009KT 39/13 A3004 RMK A01 T03930127  RH  021%=      5-min Rain = 0
KQU1 111819Z 19010KT 39/13 A3004 RMK A01 T03920126  RH  021%=      5-min Rain = 0
KQU1 111820Z 19014KT 40/12 A3004 RMK A01 T03950118  RH  019%=      5-min Rain = 0
KQU1 111821Z 19014KT 40/12 A3004 RMK A01 T03960115  RH  019%=      5-min Rain = 0
KQU1 111822Z 18014KT 40/12 A3004 RMK A01 T03980119  RH  019%=      5-min Rain = 0
KQU1 111823Z 19013KT 40/12 A3004 RMK A01 T03970118  RH  019%=      5-min Rain = 0
KQU1 111824Z 20012KT 40/12 A3004 RMK A01 T03960119  RH  019%=      5-min Rain = 0
KQU1 111825Z 20013KT 40/12 A3004 RMK A01 T03970117  RH  019%=      5-min Rain = 0
KQU1 111826Z 18010KT 40/12 A3004 RMK A01 T03970120  RH  019%=      5-min Rain = 0
KQU1 111827Z 17012KT 40/13 A3004 RMK A01 T03980126  RH  020%=      5-min Rain = 0
KQU1 111828Z 18008G15KT 40/12 A3004 RMK A01 T03970122  RH  020%=      5-min Rain = 0
KQU1 111829Z 18008KT 40/13 A3004 RMK A01 T03960129  RH  020%=      5-min Rain = 0
KQU1 111830Z 16010KT 40/13 A3004 RMK A01 T03970127  RH  020%=      5-min Rain = 0
KQU1 111831Z 17013KT 40/13 A3004 RMK A01 T03990126  RH  020%=      5-min Rain = 0
KQU1 111832Z 16012KT 40/13 A3004 RMK A01 T04000126  RH  020%=      5-min Rain = 0
KQU1 111833Z 16015G23KT 40/12 A3004 RMK A01 T04000122  RH  019%=      5-min Rain = 0
KQU1 111834Z 17015KT 40/12 A3004 RMK A01 T03990121  RH  019%=      5-min Rain = 0
KQU1 111835Z 18013KT 40/12 A3004 RMK A01 T03980116  RH  019%=      5-min Rain = 0
KQU1 111836Z 16015G21KT 40/12 A3004 RMK A01 T03970124  RH  020%=      5-min Rain = 0
KQU1 111837Z 17016KT 40/12 A3004 RMK A01 T03970123  RH  020%=      5-min Rain = 0
KQU1 111838Z 18012KT 40/12 A3004 RMK A01 T03970118  RH  019%=      5-min Rain = 0
KQU1 111839Z 15012KT 40/13 A3004 RMK A01 T03960127  RH  020%=      5-min Rain = 0
KQU1 111840Z 15015G20KT 40/13 A3004 RMK A01 T03960127  RH  020%=      5-min Rain = 0
KQU1 111841Z 17011KT 40/13 A3004 RMK A01 T03980125  RH  020%=      5-min Rain = 0
KQU1 111842Z 16017KT 40/12 A3004 RMK A01 T04010119  RH  019%=      5-min Rain = 0
KQU1 111843Z 15014KT 40/12 A3004 RMK A01 T04000121  RH  019%=      5-min Rain = 0
KQU1 111844Z 15015KT 40/12 A3004 RMK A01 T03980122  RH  019%=      5-min Rain = 0
KQU1 111845Z 16013KT 40/12 A3004 RMK A01 T03980122  RH  019%=      5-min Rain = 0
KQU1 111846Z 13013KT 40/12 A3004 RMK A01 T03970120  RH  019%=      5-min Rain = 0
KQU1 111847Z 17016KT 40/12 A3004 RMK A01 T03960118  RH  019%=      5-min Rain = 0
KQU1 111848Z 18014KT 40/11 A3004 RMK A01 T03970109  RH  018%=      5-min Rain = 0
KQU1 111849Z 18014KT 40/11 A3003 RMK A01 T03970108  RH  018%=      5-min Rain = 0
KQU1 111850Z 17013KT 40/11 A3004 RMK A01 T03990111  RH  018%=      5-min Rain = 0
KQU1 111851Z 19011KT 40/11 A3003 RMK A01 T03980106  RH  018%=      5-min Rain = 0
KQU1 111852Z 18013KT 40/11 A3003 RMK A01 T03990110  RH  018%=      5-min Rain = 0
KQU1 111853Z 19012G17KT 40/11 A3003 RMK A01 T04000109  RH  018%=      5-min Rain = 0
KQU1 111854Z 20010KT 40/11 A3003 RMK A01 T04010107  RH  017%=      5-min Rain = 0
KQU1 111855Z 21010KT 40/11 A3003 RMK A01 T04020106  RH  017%=      5-min Rain = 0
KQU1 111856Z 20014KT 40/10 A3003 RMK A01 T04040102  RH  017%=      5-min Rain = 0
KQU1 111857Z 21013KT 40/10 A3003 RMK A01 T04040098  RH  016%=      5-min Rain = 0
KQU1 111858Z 20013KT 41/10 A3003 RMK A01 T04050098  RH  016%=      5-min Rain = 0
KQU1 111859Z 20015KT 41/09 A3003 RMK A01 T04050092  RH  015%=      5-min Rain = 0
KQU1 111900Z 18010KT 41/10 A3003 RMK A01 T04050100  RH  016%=      5-min Rain = 0
KQU1 111901Z 19013KT 41/10 A3003 RMK A01 T04070102  RH  016%=      5-min Rain = 0
KQU1 111902Z 18012KT 41/09 A3003 RMK A01 T04090093  RH  015%=      5-min Rain = 0
KQU1 111903Z 16012KT 41/11 A3003 RMK A01 T04090107  RH  017%=      5-min Rain = 0
KQU1 111904Z 16009KT 41/11 A3003 RMK A01 T04060111  RH  017%=      5-min Rain = 0
KQU1 111905Z 18010KT 41/11 A3003 RMK A01 T04050108  RH  017%=      5-min Rain = 0
KQU1 111906Z 18008KT 40/11 A3003 RMK A01 T04030105  RH  017%=      5-min Rain = 0
KQU1 111907Z 18011KT 40/11 A3003 RMK A01 T04010111  RH  018%=      5-min Rain = 0
KQU1 111908Z 19013G20KT 40/11 A3003 RMK A01 T04020106  RH  017%=      5-min Rain = 0
KQU1 111909Z 19016KT 40/10 A3003 RMK A01 T04030099  RH  016%=      5-min Rain = 0
KQU1 111910Z 18015KT 40/09 A3003 RMK A01 T04020093  RH  016%=      5-min Rain = 0
KQU1 111911Z 18015KT 40/09 A3003 RMK A01 T04020094  RH  016%=      5-min Rain = 0
KQU1 111912Z 18014KT 40/09 A3003 RMK A01 T04030094  RH  016%=      5-min Rain = 0
KQU1 111913Z 19015KT 41/10 A3003 RMK A01 T04050098  RH  016%=      5-min Rain = 0
KQU1 111914Z 20013KT 41/10 A3003 RMK A01 T04060095  RH  016%=      5-min Rain = 0
KQU1 111915Z 20012KT 41/09 A3003 RMK A01 T04080092  RH  015%=      5-min Rain = 0
KQU1 111916Z 19011KT 41/09 A3003 RMK A01 T04070092  RH  015%=      5-min Rain = 0
KQU1 111917Z 19008KT 41/10 A3003 RMK A01 T04050096  RH  016%=      5-min Rain = 0
KQU1 111918Z 18008KT 40/10 A3003 RMK A01 T04030104  RH  017%=      5-min Rain = 0
KQU1 111919Z 19013KT 40/10 A3003 RMK A01 T04040102  RH  017%=      5-min Rain = 0
KQU1 111920Z 20016KT 41/10 A3003 RMK A01 T04070104  RH  016%=      5-min Rain = 0
KQU1 111921Z 19015KT 41/10 A3003 RMK A01 T04080103  RH  016%=      5-min Rain = 0
KQU1 111922Z 20014KT 41/10 A3003 RMK A01 T04080099  RH  016%=      5-min Rain = 0
KQU1 111923Z 19013KT 41/10 A3003 RMK A01 T04090101  RH  016%=      5-min Rain = 0
KQU1 111924Z 20012KT 41/10 A3003 RMK A01 T04090102  RH  016%=      5-min Rain = 0
KQU1 111925Z 19010KT 41/10 A3003 RMK A01 T04090104  RH  016%=      5-min Rain = 0
KQU1 111926Z 16010KT 41/11 A3003 RMK A01 T04090110  RH  017%=      5-min Rain = 0
KQU1 111927Z 16010KT 41/11 A3003 RMK A01 T04070110  RH  017%=      5-min Rain = 0
KQU1 111928Z 17009KT 41/11 A3002 RMK A01 T04060113  RH  018%=      5-min Rain = 0
KQU1 111929Z 16012G19KT 41/11 A3002 RMK A01 T04060112  RH  017%=      5-min Rain = 0
KQU1 111930Z 16011KT 41/11 A3002 RMK A01 T04050111  RH  017%=      5-min Rain = 0
KQU1 111931Z 16013KT 40/10 A3002 RMK A01 T04040104  RH  017%=      5-min Rain = 0
KQU1 111932Z 17012G19KT 40/11 A3002 RMK A01 T04020106  RH  017%=      5-min Rain = 0
KQU1 111933Z 19011KT 40/10 A3002 RMK A01 T04040097  RH  016%=      5-min Rain = 0
KQU1 111934Z 21012G17KT 41/10 A3002 RMK A01 T04090098  RH  016%=      5-min Rain = 0
KQU1 111935Z 20016KT 41/09 A3002 RMK A01 T04130093  RH  015%=      5-min Rain = 0
KQU1 111936Z 21015KT 41/10 A3002 RMK A01 T04110098  RH  016%=      5-min Rain = 0
KQU1 111937Z 21014KT 41/10 A3002 RMK A01 T04080100  RH  016%=      5-min Rain = 0
KQU1 111938Z 20011KT 41/10 A3002 RMK A01 T04060101  RH  016%=      5-min Rain = 0
KQU1 111939Z 19010KT 41/10 A3002 RMK A01 T04070102  RH  016%=      5-min Rain = 0
KQU1 111940Z 19013KT 41/10 A3002 RMK A01 T04090100  RH  016%=      5-min Rain = 0
KQU1 111941Z 19013KT 41/10 A3002 RMK A01 T04090098  RH  016%=      5-min Rain = 0
KQU1 111942Z 17013G19KT 41/11 A3001 RMK A01 T04080105  RH  016%=      5-min Rain = 0
KQU1 111943Z 17011G18KT 41/11 A3001 RMK A01 T04080105  RH  016%=      5-min Rain = 0
KQU1 111944Z 20013G18KT 41/10 A3001 RMK A01 T04100099  RH  016%=      5-min Rain = 0
KQU1 111945Z 19016KT 41/09 A3001 RMK A01 T04110093  RH  015%=      5-min Rain = 0
KQU1 111946Z 20013KT 41/10 A3001 RMK A01 T04100095  RH  015%=      5-min Rain = 0
KQU1 111947Z 21011KT 41/09 A3001 RMK A01 T04100094  RH  015%=      5-min Rain = 0
KQU1 111948Z 21012KT 41/09 A3001 RMK A01 T04090093  RH  015%=      5-min Rain = 0
KQU1 111949Z 20011KT 41/10 A3001 RMK A01 T04090096  RH  015%=      5-min Rain = 0
KQU1 111950Z 20010KT 41/10 A3001 RMK A01 T04080100  RH  016%=      5-min Rain = 0
KQU1 111951Z 22009KT 41/10 A3001 RMK A01 T04090101  RH  016%=      5-min Rain = 0
KQU1 111952Z 20012G18KT 41/10 A3001 RMK A01 T04100101  RH  016%=      5-min Rain = 0
KQU1 111953Z 18015KT 41/10 A3001 RMK A01 T04090102  RH  016%=      5-min Rain = 0
KQU1 111954Z 18012KT 41/11 A3001 RMK A01 T04080105  RH  017%=      5-min Rain = 0
KQU1 111955Z 18014KT 41/11 A3001 RMK A01 T04090107  RH  017%=      5-min Rain = 0
KQU1 111956Z 18016KT 41/10 A3001 RMK A01 T04100102  RH  016%=      5-min Rain = 0
KQU1 111957Z 17014KT 41/11 A3001 RMK A01 T04090108  RH  017%=      5-min Rain = 0
KQU1 111958Z 17012KT 41/11 A3001 RMK A01 T04090110  RH  017%=      5-min Rain = 0
KQU1 111959Z 19012KT 41/11 A3001 RMK A01 T04100105  RH  016%=      5-min Rain = 0
KQU1 112000Z 18014KT 41/10 A3001 RMK A01 T04120102  RH  016%=      5-min Rain = 0
KQU1 112001Z 17012KT 41/11 A3001 RMK A01 T04100107  RH  016%=      5-min Rain = 0
KQU1 112002Z 18011KT 41/11 A3001 RMK A01 T04100105  RH  016%=      5-min Rain = 0
KQU1 112003Z 18016KT 41/11 A3001 RMK A01 T04120105  RH  016%=      5-min Rain = 0
KQU1 112004Z 20012G17KT 42/10 A3001 RMK A01 T04150098  RH  015%=      5-min Rain = 0
KQU1 112005Z 19012KT 42/10 A3001 RMK A01 T04180098  RH  015%=      5-min Rain = 0
KQU1 112006Z 19013KT 42/09 A3001 RMK A01 T04200094  RH  014%=      5-min Rain = 0
KQU1 112007Z 20010KT 42/09 A3001 RMK A01 T04170087  RH  014%=      5-min Rain = 0
KQU1 112008Z 19007KT 41/09 A3001 RMK A01 T04140089  RH  014%=      5-min Rain = 0
KQU1 112009Z 17009KT 41/10 A3001 RMK A01 T04120101  RH  016%=      5-min Rain = 0
KQU1 112010Z 16011KT 41/11 A3001 RMK A01 T04100108  RH  017%=      5-min Rain = 0
KQU1 112011Z 18010KT 41/11 A3001 RMK A01 T04080109  RH  017%=      5-min Rain = 0
KQU1 112012Z 17015KT 41/11 A3001 RMK A01 T04090110  RH  017%=      5-min Rain = 0
KQU1 112013Z 19015KT 41/09 A3001 RMK A01 T04100091  RH  015%=      5-min Rain = 0
KQU1 112014Z 20012G18KT 41/09 A3001 RMK A01 T04110090  RH  015%=      5-min Rain = 0
KQU1 112015Z 18009KT 41/10 A30 RMK A01 T04140095  RH  015%=      5-min Rain = 0
KQU1 112016Z 18012KT 42/10 A30 RMK A01 T04150103  RH  016%=      5-min Rain = 0
KQU1 112017Z 19012KT 41/10 A30 RMK A01 T04130099  RH  015%=      5-min Rain = 0
KQU1 112018Z 19011KT 41/10 A30 RMK A01 T04130095  RH  015%=      5-min Rain = 0
KQU1 112019Z 18015KT 41/11 A30 RMK A01 T04120106  RH  016%=      5-min Rain = 0
KQU1 112020Z 21011KT 41/10 A30 RMK A01 T04130103  RH  016%=      5-min Rain = 0
KQU1 112021Z 19010KT 42/10 A30 RMK A01 T04170102  RH  015%=      5-min Rain = 0
KQU1 112022Z 18013G18KT 42/10 A30 RMK A01 T04170104  RH  016%=      5-min Rain = 0
KQU1 112023Z 17013KT 42/10 A30 RMK A01 T04150104  RH  016%=      5-min Rain = 0
KQU1 112024Z 18011KT 41/11 A30 RMK A01 T04130107  RH  016%=      5-min Rain = 0
KQU1 112025Z 18009KT 41/10 A30 RMK A01 T04120104  RH  016%=      5-min Rain = 0
KQU1 112026Z 16014KT 41/11 A30 RMK A01 T04110107  RH  017%=      5-min Rain = 0
KQU1 112027Z 16012KT 41/11 A30 RMK A01 T04080108  RH  017%=      5-min Rain = 0
KQU1 112028Z 18014G19KT 41/11 A30 RMK A01 T04090105  RH  016%=      5-min Rain = 0
KQU1 112029Z 18019KT 41/10 A30 RMK A01 T04100100  RH  016%=      5-min Rain = 0
KQU1 112030Z 18017KT 41/10 A30 RMK A01 T04100099  RH  016%=      5-min Rain = 0
KQU1 112031Z 19016KT 41/10 A30 RMK A01 T04090096  RH  015%=      5-min Rain = 0
KQU1 112032Z 20011KT 41/10 A30 RMK A01 T04100097  RH  016%=      5-min Rain = 0
KQU1 112033Z 21009KT 41/10 A30 RMK A01 T04120095  RH  015%=      5-min Rain = 0
KQU1 112034Z 19013G18KT 41/09 A30 RMK A01 T04130093  RH  015%=      5-min Rain = 0
KQU1 112035Z 16016KT 41/10 A30 RMK A01 T04130097  RH  015%=      5-min Rain = 0
KQU1 112036Z 16013KT 41/10 A2999 RMK A01 T04110099  RH  016%=      5-min Rain = 0
KQU1 112037Z 18014G19KT 41/10 A2999 RMK A01 T04100102  RH  016%=      5-min Rain = 0
KQU1 112038Z 21017KT 41/09 A2999 RMK A01 T04120094  RH  015%=      5-min Rain = 0
KQU1 112039Z 21014KT 41/09 A2999 RMK A01 T04120092  RH  015%=      5-min Rain = 0
KQU1 112040Z 19014KT 41/09 A2999 RMK A01 T04120093  RH  015%=      5-min Rain = 0
KQU1 112041Z 19012KT 41/09 A2999 RMK A01 T04130090  RH  015%=      5-min Rain = 0
KQU1 112042Z 19012KT 41/10 A2999 RMK A01 T04130095  RH  015%=      5-min Rain = 0
KQU1 112043Z 17013KT 42/10 A2999 RMK A01 T04150100  RH  015%=      5-min Rain = 0
KQU1 112044Z 17013KT 42/10 A2999 RMK A01 T04150100  RH  015%=      5-min Rain = 0
KQU1 112045Z 15013KT 41/10 A2999 RMK A01 T04140104  RH  016%=      5-min Rain = 0
KQU1 112046Z 15015KT 41/10 A2999 RMK A01 T04130103  RH  016%=      5-min Rain = 0
KQU1 112047Z 17016KT 41/10 A2999 RMK A01 T04120098  RH  015%=      5-min Rain = 0
KQU1 112048Z 18018G24KT 41/10 A2999 RMK A01 T04120096  RH  015%=      5-min Rain = 0
KQU1 112049Z 18017KT 41/09 A2999 RMK A01 T04130094  RH  015%=      5-min Rain = 0
KQU1 112050Z 19016KT 41/09 A2999 RMK A01 T04130091  RH  015%=      5-min Rain = 0
KQU1 112051Z 18014KT 41/09 A2999 RMK A01 T04130091  RH  015%=      5-min Rain = 0
KQU1 112052Z 19015KT 41/09 A2999 RMK A01 T04120090  RH  015%=      5-min Rain = 0
KQU1 112053Z 18012KT 41/09 A2999 RMK A01 T04140094  RH  015%=      5-min Rain = 0
KQU1 112054Z 17014KT 42/10 A2999 RMK A01 T04150099  RH  015%=      5-min Rain = 0
KQU1 112055Z 16014KT 41/10 A2999 RMK A01 T04130097  RH  015%=      5-min Rain = 0
KQU1 112056Z 19012G17KT 41/10 A2999 RMK A01 T04110096  RH  015%=      5-min Rain = 0
KQU1 112057Z 20014G22KT 41/09 A2999 RMK A01 T04130091  RH  015%=      5-min Rain = 0
KQU1 112058Z 20013G19KT 42/09 A2999 RMK A01 T04160087  RH  014%=      5-min Rain = 0
KQU1 112059Z 19011KT 42/10 A2998 RMK A01 T04160095  RH  015%=      5-min Rain = 0
KQU1 112100Z 18015KT 42/10 A2998 RMK A01 T04170099  RH  015%=      5-min Rain = 0
KQU1 112101Z 18017KT 42/09 A2999 RMK A01 T04170094  RH  015%=      5-min Rain = 0
KQU1 112102Z 18014KT 41/09 A2998 RMK A01 T04140091  RH  015%=      5-min Rain = 0
KQU1 112103Z 17016KT 41/10 A2998 RMK A01 T04120095  RH  015%=      5-min Rain = 0
KQU1 112104Z 16018G23KT 41/10 A2998 RMK A01 T04110095  RH  015%=      5-min Rain = 0
KQU1 112105Z 16013KT 41/10 A2998 RMK A01 T04100100  RH  016%=      5-min Rain = 0
KQU1 112106Z 18017KT 41/10 A2998 RMK A01 T04120095  RH  015%=      5-min Rain = 0
KQU1 112107Z 18013KT 41/09 A2998 RMK A01 T04130091  RH  015%=      5-min Rain = 0
KQU1 112108Z 19012KT 41/09 A2998 RMK A01 T04140090  RH  014%=      5-min Rain = 0
KQU1 112109Z 17016G22KT 42/10 A2998 RMK A01 T04170098  RH  015%=      5-min Rain = 0
KQU1 112110Z 20020G25KT 42/09 A2998 RMK A01 T04190089  RH  014%=      5-min Rain = 0
KQU1 112111Z 20017KT 42/09 A2998 RMK A01 T04190087  RH  014%=      5-min Rain = 0
KQU1 112112Z 20018G24KT 42/09 A2998 RMK A01 T04190087  RH  014%=      5-min Rain = 0
KQU1 112113Z 20017KT 42/09 A2998 RMK A01 T04180087  RH  014%=      5-min Rain = 0
KQU1 112114Z 17018KT 42/09 A2998 RMK A01 T04180090  RH  014%=      5-min Rain = 0
KQU1 112115Z 17014KT 41/09 A2998 RMK A01 T04140091  RH  015%=      5-min Rain = 0
KQU1 112116Z 18014KT 41/09 A2998 RMK A01 T04120088  RH  014%=      5-min Rain = 0
KQU1 112117Z 19012KT 41/09 A2998 RMK A01 T04120088  RH  014%=      5-min Rain = 0
KQU1 112118Z 19016KT 42/09 A2998 RMK A01 T04160086  RH  014%=      5-min Rain = 0
KQU1 112119Z 19015KT 42/09 A2998 RMK A01 T04180087  RH  014%=      5-min Rain = 0
KQU1 112120Z 21013KT 42/08 A2998 RMK A01 T04180083  RH  013%=      5-min Rain = 0
KQU1 112121Z 21012KT 42/08 A2998 RMK A01 T04170083  RH  014%=      5-min Rain = 0
KQU1 112122Z 23011KT 42/09 A2998 RMK A01 T04180086  RH  014%=      5-min Rain = 0
KQU1 112123Z 21010KT 42/09 A2998 RMK A01 T04200087  RH  014%=      5-min Rain = 0
KQU1 112124Z 21014KT 42/09 A2998 RMK A01 T04200088  RH  014%=      5-min Rain = 0
KQU1 112125Z 19013KT 42/09 A2998 RMK A01 T04190093  RH  014%=      5-min Rain = 0
KQU1 112126Z 19012KT 42/10 A2998 RMK A01 T04190096  RH  015%=      5-min Rain = 0
KQU1 112127Z 17013KT 42/10 A2998 RMK A01 T04190096  RH  015%=      5-min Rain = 0
KQU1 112128Z 18010G15KT 42/09 A2998 RMK A01 T04150090  RH  014%=      5-min Rain = 0
KQU1 112129Z 19009KT 41/09 A2998 RMK A01 T04140090  RH  014%=      5-min Rain = 0
KQU1 112130Z 17009G16KT 42/10 A2998 RMK A01 T04150097  RH  015%=      5-min Rain = 0
KQU1 112131Z 19014G22KT 42/09 A2997 RMK A01 T04160093  RH  015%=      5-min Rain = 0
KQU1 112132Z 19014G20KT 42/08 A2998 RMK A01 T04160084  RH  014%=      5-min Rain = 0
KQU1 112133Z 18010KT 41/09 A2998 RMK A01 T04140087  RH  014%=      5-min Rain = 0
KQU1 112134Z 19013KT 41/09 A2997 RMK A01 T04140085  RH  014%=      5-min Rain = 0
KQU1 112135Z 20014KT 42/09 A2997 RMK A01 T04150085  RH  014%=      5-min Rain = 0
KQU1 112136Z 20018KT 42/09 A2997 RMK A01 T04170085  RH  014%=      5-min Rain = 0
KQU1 112137Z 20018KT 42/08 A2997 RMK A01 T04180084  RH  014%=      5-min Rain = 0
KQU1 112138Z 20016KT 42/08 A2998 RMK A01 T04180084  RH  014%=      5-min Rain = 0
KQU1 112139Z 21014KT 42/08 A2998 RMK A01 T04170083  RH  014%=      5-min Rain = 0
KQU1 112140Z 21014KT 42/08 A2998 RMK A01 T04160082  RH  014%=      5-min Rain = 0
KQU1 112141Z 21013KT 42/08 A2998 RMK A01 T04150083  RH  014%=      5-min Rain = 0
KQU1 112142Z 20013KT 41/08 A2997 RMK A01 T04140083  RH  014%=      5-min Rain = 0
KQU1 112143Z 21011KT 41/08 A2997 RMK A01 T04140084  RH  014%=      5-min Rain = 0
KQU1 112144Z 22011KT 42/08 A2997 RMK A01 T04150082  RH  014%=      5-min Rain = 0
KQU1 112145Z 23013KT 41/08 A2997 RMK A01 T04140083  RH  014%=      5-min Rain = 0
KQU1 112146Z 22009KT 41/08 A2997 RMK A01 T04140083  RH  014%=      5-min Rain = 0
KQU1 112147Z 21013KT 42/08 A2997 RMK A01 T04150083  RH  014%=      5-min Rain = 0
KQU1 112148Z 21011KT 42/08 A2997 RMK A01 T04150084  RH  014%=      5-min Rain = 0
KQU1 112149Z 21011KT 42/09 A2997 RMK A01 T04160086  RH  014%=      5-min Rain = 0
KQU1 112150Z 19008KT 42/09 A2997 RMK A01 T04180088  RH  014%=      5-min Rain = 0
KQU1 112151Z 19012KT 42/09 A2997 RMK A01 T04190087  RH  014%=      5-min Rain = 0
KQU1 112152Z 21013KT 42/09 A2997 RMK A01 T04200090  RH  014%=      5-min Rain = 0
KQU1 112153Z 21016KT 42/09 A2997 RMK A01 T04210089  RH  014%=      5-min Rain = 0
KQU1 112154Z 21014KT 42/09 A2997 RMK A01 T04200088  RH  014%=      5-min Rain = 0
KQU1 112155Z 22015KT 42/09 A2997 RMK A01 T04190089  RH  014%=      5-min Rain = 0
KQU1 112156Z 21015KT 42/09 A2997 RMK A01 T04180089  RH  014%=      5-min Rain = 0
KQU1 112157Z 20013KT 42/09 A2997 RMK A01 T04160089  RH  014%=      5-min Rain = 0
KQU1 112158Z 20012KT 42/09 A2997 RMK A01 T04150089  RH  014%=      5-min Rain = 0
KQU1 112159Z 19008G13KT 41/09 A2997 RMK A01 T04140089  RH  014%=      5-min Rain = 0
KQU1 112200Z 21017KT 41/09 A2997 RMK A01 T04140089  RH  014%=      5-min Rain = 0
KQU1 112201Z 21017KT 41/09 A2997 RMK A01 T04140088  RH  014%=      5-min Rain = 0
KQU1 112202Z 21015KT 41/09 A2997 RMK A01 T04130086  RH  014%=      5-min Rain = 0
KQU1 112203Z 20013KT 41/09 A2997 RMK A01 T04130085  RH  014%=      5-min Rain = 0
KQU1 112204Z 20014KT 41/09 A2997 RMK A01 T04140085  RH  014%=      5-min Rain = 0
KQU1 112205Z 19013KT 41/09 A2997 RMK A01 T04140086  RH  014%=      5-min Rain = 0
KQU1 112206Z 19012KT 42/09 A2997 RMK A01 T04150087  RH  014%=      5-min Rain = 0
KQU1 112207Z 20012KT 42/09 A2997 RMK A01 T04160088  RH  014%=      5-min Rain = 0
KQU1 112208Z 21012KT 42/09 A2996 RMK A01 T04160088  RH  014%=      5-min Rain = 0
KQU1 112209Z 20015KT 42/09 A2997 RMK A01 T04170091  RH  014%=      5-min Rain = 0
KQU1 112210Z 20013KT 42/09 A2996 RMK A01 T04170093  RH  015%=      5-min Rain = 0
KQU1 112211Z 20012KT 42/09 A2996 RMK A01 T04170092  RH  014%=      5-min Rain = 0
KQU1 112212Z 21011KT 42/09 A2996 RMK A01 T04170091  RH  014%=      5-min Rain = 0
KQU1 112213Z 21012KT 42/09 A2996 RMK A01 T04150092  RH  015%=      5-min Rain = 0
KQU1 112214Z 18011KT 42/10 A2996 RMK A01 T04150098  RH  015%=      5-min Rain = 0
KQU1 112215Z 15013KT 42/11 A2996 RMK A01 T04160109  RH  016%=      5-min Rain = 0
KQU1 112216Z 16012KT 42/11 A2996 RMK A01 T04160112  RH  017%=      5-min Rain = 0
KQU1 112217Z 18016KT 42/10 A2996 RMK A01 T04150099  RH  015%=      5-min Rain = 0
KQU1 112218Z 18014KT 41/10 A2996 RMK A01 T04140097  RH  015%=      5-min Rain = 0
KQU1 112219Z 18016KT 41/10 A2996 RMK A01 T04130098  RH  015%=      5-min Rain = 0
KQU1 112220Z 17015KT 41/10 A2996 RMK A01 T04130099  RH  015%=      5-min Rain = 0
KQU1 112221Z 17015KT 41/10 A2996 RMK A01 T04120099  RH  015%=      5-min Rain = 0
KQU1 112222Z 18014KT 41/10 A2996 RMK A01 T04110095  RH  015%=      5-min Rain = 0
KQU1 112223Z 18013KT 41/10 A2996 RMK A01 T04110097  RH  015%=      5-min Rain = 0
KQU1 112224Z 18014KT 41/09 A2996 RMK A01 T04120094  RH  015%=      5-min Rain = 0
KQU1 112225Z 18016KT 41/09 A2996 RMK A01 T04120094  RH  015%=      5-min Rain = 0
KQU1 112226Z 19014KT 41/09 A2996 RMK A01 T04120091  RH  015%=      5-min Rain = 0
KQU1 112227Z 20012KT 41/09 A2996 RMK A01 T04130085  RH  014%=      5-min Rain = 0
KQU1 112228Z 20013G18KT 41/09 A2995 RMK A01 T04140089  RH  014%=      5-min Rain = 0
KQU1 112229Z 21015KT 42/09 A2995 RMK A01 T04160089  RH  014%=      5-min Rain = 0
KQU1 112230Z 19013KT 42/09 A2995 RMK A01 T04160090  RH  014%=      5-min Rain = 0
KQU1 112231Z 18013KT 42/10 A2995 RMK A01 T04160095  RH  015%=      5-min Rain = 0
KQU1 112232Z 19014KT 42/09 A2995 RMK A01 T04150091  RH  014%=      5-min Rain = 0
KQU1 112233Z 18017KT 41/09 A2995 RMK A01 T04140090  RH  014%=      5-min Rain = 0
KQU1 112234Z 16011KT 41/09 A2995 RMK A01 T04140094  RH  015%=      5-min Rain = 0
KQU1 112235Z 16008KT 41/10 A2995 RMK A01 T04120099  RH  015%=      5-min Rain = 0
KQU1 112236Z 16011KT 41/10 A2995 RMK A01 T04120097  RH  015%=      5-min Rain = 0
KQU1 112237Z 16011KT 41/10 A2995 RMK A01 T04120096  RH  015%=      5-min Rain = 0
KQU1 112238Z 17011KT 41/09 A2995 RMK A01 T04110090  RH  015%=      5-min Rain = 0
KQU1 112239Z 18011KT 41/09 A2995 RMK A01 T04110089  RH  015%=      5-min Rain = 0
KQU1 112240Z 21013KT 41/09 A2995 RMK A01 T04120089  RH  014%=      5-min Rain = 0
KQU1 112241Z 19016KT 42/09 A2995 RMK A01 T04150090  RH  014%=      5-min Rain = 0
KQU1 112242Z 19014KT 41/09 A2995 RMK A01 T04140088  RH  014%=      5-min Rain = 0
KQU1 112243Z 19011KT 41/09 A2995 RMK A01 T04140091  RH  015%=      5-min Rain = 0
KQU1 112244Z 21013KT 42/09 A2994 RMK A01 T04150089  RH  014%=      5-min Rain = 0
KQU1 112245Z 21015KT 42/09 A2994 RMK A01 T04170088  RH  014%=      5-min Rain = 0
KQU1 112246Z 21014KT 42/09 A2994 RMK A01 T04170087  RH  014%=      5-min Rain = 0
KQU1 112247Z 21014KT 42/09 A2994 RMK A01 T04150086  RH  014%=      5-min Rain = 0
KQU1 112248Z 20010KT 42/09 A2994 RMK A01 T04160087  RH  014%=      5-min Rain = 0
KQU1 112249Z 22011KT 42/09 A2994 RMK A01 T04160087  RH  014%=      5-min Rain = 0
KQU1 112250Z 21011KT 42/09 A2994 RMK A01 T04160086  RH  014%=      5-min Rain = 0
KQU1 112251Z 20014KT 42/09 A2994 RMK A01 T04160086  RH  014%=      5-min Rain = 0
KQU1 112252Z 21013KT 42/08 A2994 RMK A01 T04160083  RH  014%=      5-min Rain = 0
KQU1 112253Z 21011KT 42/08 A2994 RMK A01 T04170084  RH  014%=      5-min Rain = 0
KQU1 112254Z 22012KT 42/09 A2994 RMK A01 T04180085  RH  014%=      5-min Rain = 0
KQU1 112255Z 20013KT 42/08 A2994 RMK A01 T04180084  RH  014%=      5-min Rain = 0
KQU1 112256Z 19013KT 42/09 A2994 RMK A01 T04180089  RH  014%=      5-min Rain = 0
KQU1 112257Z 18013KT 42/09 A2994 RMK A01 T04180091  RH  014%=      5-min Rain = 0
KQU1 112258Z 19014KT 42/09 A2994 RMK A01 T04180089  RH  014%=      5-min Rain = 0
KQU1 112259Z 17016KT 42/09 A2994 RMK A01 T04170092  RH  014%=      5-min Rain = 0
KQU1 112300Z 18014KT 42/09 A2994 RMK A01 T04150093  RH  015%=      5-min Rain = 0
KQU1 112301Z 17015KT 41/09 A2993 RMK A01 T04140090  RH  014%=      5-min Rain = 0
KQU1 112302Z 16017KT 41/09 A2993 RMK A01 T04120090  RH  015%=      5-min Rain = 0
KQU1 112303Z 18016KT 41/09 A2993 RMK A01 T04120092  RH  015%=      5-min Rain = 0
KQU1 112304Z 20016KT 41/08 A2993 RMK A01 T04130083  RH  014%=      5-min Rain = 0
KQU1 112305Z 19014KT 41/08 A2993 RMK A01 T04130084  RH  014%=      5-min Rain = 0
KQU1 112306Z 20011KT 42/09 A2993 RMK A01 T04150086  RH  014%=      5-min Rain = 0
KQU1 112307Z 19012KT 42/09 A2993 RMK A01 T04170085  RH  014%=      5-min Rain = 0
KQU1 112308Z 18016KT 42/09 A2993 RMK A01 T04160085  RH  014%=      5-min Rain = 0
KQU1 112309Z 19013KT 41/09 A2993 RMK A01 T04140085  RH  014%=      5-min Rain = 0
KQU1 112310Z 21013KT 41/08 A2993 RMK A01 T04140081  RH  014%=      5-min Rain = 0
KQU1 112311Z 20014KT 41/08 A2993 RMK A01 T04140080  RH  014%=      5-min Rain = 0
KQU1 112312Z 19012KT 42/08 A2993 RMK A01 T04150081  RH  014%=      5-min Rain = 0
KQU1 112313Z 19013KT 42/09 A2993 RMK A01 T04160085  RH  014%=      5-min Rain = 0
KQU1 112314Z 20016KT 42/08 A2993 RMK A01 T04170084  RH  014%=      5-min Rain = 0
KQU1 112315Z 18016KT 42/09 A2993 RMK A01 T04170086  RH  014%=      5-min Rain = 0
KQU1 112316Z 20015KT 42/09 A2993 RMK A01 T04160085  RH  014%=      5-min Rain = 0
KQU1 112317Z 19016KT 42/08 A2993 RMK A01 T04170083  RH  014%=      5-min Rain = 0
KQU1 112318Z 18015KT 42/08 A2993 RMK A01 T04160084  RH  014%=      5-min Rain = 0
KQU1 112319Z 18016KT 41/09 A2993 RMK A01 T04140087  RH  014%=      5-min Rain = 0
KQU1 112320Z 18014KT 41/09 A2993 RMK A01 T04130088  RH  014%=      5-min Rain = 0
KQU1 112321Z 17015KT 41/09 A2993 RMK A01 T04130089  RH  014%=      5-min Rain = 0
KQU1 112322Z 18017KT 41/09 A2993 RMK A01 T04120086  RH  014%=      5-min Rain = 0
KQU1 112323Z 18017KT 41/09 A2993 RMK A01 T04110088  RH  014%=      5-min Rain = 0
KQU1 112324Z 18017KT 41/08 A2993 RMK A01 T04100083  RH  014%=      5-min Rain = 0
KQU1 112325Z 19018G23KT 41/09 A2993 RMK A01 T04110085  RH  014%=      5-min Rain = 0
KQU1 112326Z 19017KT 41/08 A2993 RMK A01 T04110082  RH  014%=      5-min Rain = 0
KQU1 112327Z 19015KT 41/08 A2993 RMK A01 T04120083  RH  014%=      5-min Rain = 0
KQU1 112328Z 19014KT 41/08 A2993 RMK A01 T04120083  RH  014%=      5-min Rain = 0
KQU1 112329Z 19015KT 41/08 A2993 RMK A01 T04120081  RH  014%=      5-min Rain = 0
KQU1 112330Z 19015KT 41/08 A2993 RMK A01 T04120080  RH  014%=      5-min Rain = 0
KQU1 112331Z 18015KT 41/08 A2992 RMK A01 T04110082  RH  014%=      5-min Rain = 0
KQU1 112332Z 19016KT 41/08 A2992 RMK A01 T04100080  RH  014%=      5-min Rain = 0
KQU1 112333Z 18014KT 41/08 A2992 RMK A01 T04100080  RH  014%=      5-min Rain = 0
KQU1 112334Z 18014KT 41/08 A2992 RMK A01 T04110083  RH  014%=      5-min Rain = 0
KQU1 112335Z 18016KT 41/08 A2992 RMK A01 T04100083  RH  014%=      5-min Rain = 0
KQU1 112336Z 19015KT 41/08 A2992 RMK A01 T04100082  RH  014%=      5-min Rain = 0
KQU1 112337Z 19016KT 41/08 A2992 RMK A01 T04100080  RH  014%=      5-min Rain = 0
KQU1 112338Z 18016G22KT 41/08 A2992 RMK A01 T04100082  RH  014%=      5-min Rain = 0
KQU1 112339Z 18018KT 41/08 A2992 RMK A01 T04100084  RH  014%=      5-min Rain = 0
KQU1 112340Z 18015KT 41/08 A2992 RMK A01 T04090082  RH  014%=      5-min Rain = 0
KQU1 112341Z 19014KT 41/08 A2992 RMK A01 T04090081  RH  014%=      5-min Rain = 0
KQU1 112342Z 19016KT 41/08 A2992 RMK A01 T04090080  RH  014%=      5-min Rain = 0
KQU1 112343Z 17013KT 41/08 A2992 RMK A01 T04090084  RH  014%=      5-min Rain = 0
KQU1 112344Z 18012KT 41/08 A2992 RMK A01 T04080084  RH  014%=      5-min Rain = 0
KQU1 112345Z 17013KT 41/09 A2992 RMK A01 T04080086  RH  015%=      5-min Rain = 0
KQU1 112346Z 18015KT 41/09 A2992 RMK A01 T04080086  RH  014%=      5-min Rain = 0
KQU1 112347Z 19015KT 41/09 A2992 RMK A01 T04090085  RH  014%=      5-min Rain = 0
KQU1 112348Z 19016KT 41/09 A2992 RMK A01 T04100085  RH  014%=      5-min Rain = 0
KQU1 112349Z 19017KT 41/09 A2992 RMK A01 T04100085  RH  014%=      5-min Rain = 0
KQU1 112350Z 19018KT 41/08 A2992 RMK A01 T04100083  RH  014%=      5-min Rain = 0
KQU1 112351Z 20015KT 41/08 A2992 RMK A01 T04090083  RH  014%=      5-min Rain = 0
KQU1 112352Z 19015KT 41/08 A2992 RMK A01 T04100083  RH  014%=      5-min Rain = 0
KQU1 112353Z 19017KT 41/08 A2992 RMK A01 T04100083  RH  014%=      5-min Rain = 0
KQU1 112354Z 19015KT 41/08 A2992 RMK A01 T04090083  RH  014%=      5-min Rain = 0
KQU1 112355Z 19012KT 41/09 A2992 RMK A01 T04090085  RH  014%=      5-min Rain = 0
KQU1 112356Z 18018G23KT 41/09 A2992 RMK A01 T04090090  RH  015%=      5-min Rain = 0
KQU1 112357Z 18017KT 41/09 A2992 RMK A01 T04070092  RH  015%=      5-min Rain = 0
KQU1 112358Z 19016G22KT 41/09 A2992 RMK A01 T04050089  RH  015%=      5-min Rain = 0
KQU1 112359Z 17015KT 41/09 A2992 RMK A01 T04050094  RH  016%=      5-min Rain = 0
KQU1 120000Z 17016KT 40/09 A2992 RMK A01 T04040094  RH  016%=      5-min Rain = 0
KQU1 120001Z 17016KT 40/09 A2992 RMK A01 T04040093  RH  016%=      5-min Rain = 0
KQU1 120002Z 17016KT 40/09 A2992 RMK A01 T04030092  RH  016%=      5-min Rain = 0
KQU1 120003Z 17015KT 40/09 A2992 RMK A01 T04030092  RH  016%=      5-min Rain = 0
KQU1 120004Z 16018KT 40/09 A2992 RMK A01 T04020092  RH  016%=      5-min Rain = 0
KQU1 120005Z 16015KT 40/09 A2992 RMK A01 T04020092  RH  016%=      5-min Rain = 0
KQU1 120006Z 17019KT 40/09 A2992 RMK A01 T04020093  RH  016%=      5-min Rain = 0
KQU1 120007Z 18016KT 40/09 A2992 RMK A01 T04020091  RH  015%=      5-min Rain = 0
KQU1 120008Z 18017KT 40/09 A2992 RMK A01 T04020091  RH  015%=      5-min Rain = 0
KQU1 120009Z 18016KT 40/09 A2992 RMK A01 T04020087  RH  015%=      5-min Rain = 0
KQU1 120010Z 18016KT 40/09 A2992 RMK A01 T04020087  RH  015%=      5-min Rain = 0
KQU1 120011Z 18019KT 40/09 A2992 RMK A01 T04020087  RH  015%=      5-min Rain = 0
KQU1 120012Z 18016KT 40/09 A2992 RMK A01 T04020089  RH  015%=      5-min Rain = 0
KQU1 120013Z 18016KT 40/09 A2992 RMK A01 T04030090  RH  015%=      5-min Rain = 0
KQU1 120014Z 17016KT 40/09 A2992 RMK A01 T04020092  RH  016%=      5-min Rain = 0
KQU1 120015Z 17016KT 40/09 A2992 RMK A01 T04010092  RH  016%=      5-min Rain = 0
KQU1 120016Z 17014KT 40/10 A2992 RMK A01 T04010095  RH  016%=      5-min Rain = 0
KQU1 120017Z 18015KT 40/09 A2992 RMK A01 T04010093  RH  016%=      5-min Rain = 0
KQU1 120018Z 17015KT 40/09 A2992 RMK A01 T04020091  RH  016%=      5-min Rain = 0
KQU1 120019Z 17015KT 40/10 A2992 RMK A01 T04020095  RH  016%=      5-min Rain = 0
KQU1 120020Z 17015KT 40/10 A2992 RMK A01 T04010095  RH  016%=      5-min Rain = 0
KQU1 120021Z 17014KT 40/10 A2992 RMK A01 T04010096  RH  016%=      5-min Rain = 0
KQU1 120022Z 17016KT 40/09 A2992 RMK A01 T04000092  RH  016%=      5-min Rain = 0
KQU1 120023Z 17016KT 40/09 A2992 RMK A01 T03990092  RH  016%=      5-min Rain = 0
KQU1 120024Z 17017KT 40/09 A2992 RMK A01 T03990093  RH  016%=      5-min Rain = 0
KQU1 120025Z 17017KT 40/09 A2992 RMK A01 T03990094  RH  016%=      5-min Rain = 0
KQU1 120026Z 18013KT 40/10 A2992 RMK A01 T03990095  RH  016%=      5-min Rain = 0
KQU1 120027Z 18017KT 40/09 A2992 RMK A01 T04000092  RH  016%=      5-min Rain = 0
KQU1 120028Z 17018KT 40/09 A2992 RMK A01 T04000093  RH  016%=      5-min Rain = 0
KQU1 120029Z 18015KT 40/09 A2992 RMK A01 T04000094  RH  016%=      5-min Rain = 0
KQU1 120030Z 18013G18KT 40/09 A2992 RMK A01 T04000094  RH  016%=      5-min Rain = 0
KQU1 120031Z 18015G22KT 40/10 A2992 RMK A01 T04000095  RH  016%=      5-min Rain = 0
KQU1 120032Z 18016KT 40/10 A2992 RMK A01 T04000095  RH  016%=      5-min Rain = 0
KQU1 120033Z 18017KT 40/09 A2992 RMK A01 T03990094  RH  016%=      5-min Rain = 0
KQU1 120034Z 18015KT 40/10 A2992 RMK A01 T03990095  RH  016%=      5-min Rain = 0
KQU1 120035Z 17016KT 40/10 A2992 RMK A01 T03990096  RH  016%=      5-min Rain = 0
KQU1 120036Z 17016KT 40/10 A2992 RMK A01 T03980095  RH  016%=      5-min Rain = 0
KQU1 120037Z 17016KT 40/10 A2992 RMK A01 T03970096  RH  016%=      5-min Rain = 0
KQU1 120038Z 17015KT 40/10 A2992 RMK A01 T03970097  RH  017%=      5-min Rain = 0
KQU1 120039Z 17013KT 40/10 A2992 RMK A01 T03960099  RH  017%=      5-min Rain = 0
KQU1 120040Z 17015KT 40/10 A2992 RMK A01 T03960097  RH  017%=      5-min Rain = 0
KQU1 120041Z 18015KT 40/10 A2992 RMK A01 T03960096  RH  017%=      5-min Rain = 0
KQU1 120042Z 18014KT 40/10 A2992 RMK A01 T03960097  RH  017%=      5-min Rain = 0
KQU1 120043Z 18017KT 40/10 A2992 RMK A01 T03970096  RH  016%=      5-min Rain = 0
KQU1 120044Z 17016G22KT 40/10 A2992 RMK A01 T03960097  RH  017%=      5-min Rain = 0
KQU1 120045Z 17017KT 40/10 A2992 RMK A01 T03950095  RH  017%=      5-min Rain = 0
KQU1 120046Z 18015KT 40/10 A2992 RMK A01 T03950096  RH  017%=      5-min Rain = 0
KQU1 120047Z 18013KT 40/10 A2992 RMK A01 T03950098  RH  017%=      5-min Rain = 0
KQU1 120048Z 18016KT 39/10 A2992 RMK A01 T03940095  RH  017%=      5-min Rain = 0
KQU1 120049Z 18015KT 39/09 A2992 RMK A01 T03940094  RH  016%=      5-min Rain = 0
KQU1 120050Z 18015KT 40/09 A2992 RMK A01 T03950094  RH  016%=      5-min Rain = 0
KQU1 120051Z 18016KT 40/09 A2992 RMK A01 T03950091  RH  016%=      5-min Rain = 0
KQU1 120052Z 18018KT 40/09 A2992 RMK A01 T03950092  RH  016%=      5-min Rain = 0
KQU1 120053Z 18017KT 39/09 A2992 RMK A01 T03940092  RH  016%=      5-min Rain = 0
KQU1 120054Z 18015KT 39/09 A2992 RMK A01 T03940092  RH  016%=      5-min Rain = 0
KQU1 120055Z 18015KT 39/09 A2992 RMK A01 T03940090  RH  016%=      5-min Rain = 0
KQU1 120056Z 18016KT 39/09 A2992 RMK A01 T03940089  RH  016%=      5-min Rain = 0
KQU1 120057Z 19015KT 39/09 A2992 RMK A01 T03930089  RH  016%=      5-min Rain = 0
KQU1 120058Z 18014KT 39/09 A2992 RMK A01 T03930089  RH  016%=      5-min Rain = 0
KQU1 120059Z 18016KT 39/09 A2992 RMK A01 T03920088  RH  016%=      5-min Rain = 0
KQU1 120100Z 18014KT 39/09 A2992 RMK A01 T03920089  RH  016%=      5-min Rain = 0
KQU1 120101Z 19014KT 39/09 A2992 RMK A01 T03910089  RH  016%=      5-min Rain = 0
KQU1 120102Z 19012KT 39/09 A2992 RMK A01 T03920090  RH  016%=      5-min Rain = 0
KQU1 120103Z 19013KT 39/09 A2992 RMK A01 T03920090  RH  016%=      5-min Rain = 0
KQU1 120104Z 19016KT 39/09 A2992 RMK A01 T03920089  RH  016%=      5-min Rain = 0
KQU1 120105Z 18015KT 39/09 A2992 RMK A01 T03930089  RH  016%=      5-min Rain = 0
KQU1 120106Z 18015KT 39/09 A2992 RMK A01 T03920090  RH  016%=      5-min Rain = 0
KQU1 120107Z 18014KT 39/09 A2992 RMK A01 T03920092  RH  016%=      5-min Rain = 0
KQU1 120108Z 18014G20KT 39/09 A2992 RMK A01 T03910092  RH  017%=      5-min Rain = 0
KQU1 120109Z 18016KT 39/09 A2992 RMK A01 T03900091  RH  017%=      5-min Rain = 0
KQU1 120110Z 19013KT 39/09 A2992 RMK A01 T03890090  RH  017%=      5-min Rain = 0
KQU1 120111Z 19012KT 39/09 A2992 RMK A01 T03880091  RH  017%=      5-min Rain = 0
KQU1 120112Z 19012KT 39/09 A2992 RMK A01 T03880091  RH  017%=      5-min Rain = 0
KQU1 120113Z 19013KT 39/09 A2992 RMK A01 T03870090  RH  017%=      5-min Rain = 0
KQU1 120114Z 19014KT 39/09 A2992 RMK A01 T03860089  RH  017%=      5-min Rain = 0
KQU1 120115Z 19013KT 39/09 A2992 RMK A01 T03860089  RH  017%=      5-min Rain = 0
KQU1 120116Z 19013KT 39/09 A2992 RMK A01 T03850088  RH  017%=      5-min Rain = 0
KQU1 120117Z 19014KT 39/09 A2992 RMK A01 T03850087  RH  017%=      5-min Rain = 0
KQU1 120118Z 19012KT 39/09 A2992 RMK A01 T03850088  RH  017%=      5-min Rain = 0
KQU1 120119Z 19012KT 38/09 A2992 RMK A01 T03840088  RH  017%=      5-min Rain = 0
KQU1 120120Z 19012G17KT 38/09 A2992 RMK A01 T03840088  RH  017%=      5-min Rain = 0
KQU1 120121Z 19014KT 38/09 A2992 RMK A01 T03830087  RH  017%=      5-min Rain = 0
KQU1 120122Z 19012KT 38/09 A2992 RMK A01 T03830087  RH  017%=      5-min Rain = 0
KQU1 120123Z 19013KT 38/09 A2992 RMK A01 T03820088  RH  017%=      5-min Rain = 0
KQU1 120124Z 19012KT 38/09 A2992 RMK A01 T03820088  RH  017%=      5-min Rain = 0
KQU1 120125Z 18013KT 38/09 A2992 RMK A01 T03820089  RH  017%=      5-min Rain = 0
KQU1 120126Z 18012KT 38/09 A2992 RMK A01 T03810089  RH  017%=      5-min Rain = 0
KQU1 120127Z 18013KT 38/09 A2992 RMK A01 T03810090  RH  017%=      5-min Rain = 0
KQU1 120128Z 18013KT 38/09 A2992 RMK A01 T03800090  RH  017%=      5-min Rain = 0
KQU1 120129Z 18013KT 38/09 A2992 RMK A01 T03800090  RH  017%=      5-min Rain = 0
KQU1 120130Z 18012KT 38/09 A2992 RMK A01 T03800090  RH  017%=      5-min Rain = 0
KQU1 120131Z 19010KT 38/09 A2992 RMK A01 T03790090  RH  017%=      5-min Rain = 0
KQU1 120132Z 19012KT 38/09 A2992 RMK A01 T03780090  RH  017%=      5-min Rain = 0
KQU1 120133Z 19013KT 38/09 A2992 RMK A01 T03780089  RH  017%=      5-min Rain = 0
KQU1 120134Z 19013KT 38/09 A2992 RMK A01 T03780089  RH  017%=      5-min Rain = 0
KQU1 120135Z 19013KT 38/09 A2992 RMK A01 T03780088  RH  017%=      5-min Rain = 0
KQU1 120136Z 19012KT 38/09 A2992 RMK A01 T03780088  RH  017%=      5-min Rain = 0
KQU1 120137Z 19013KT 38/09 A2992 RMK A01 T03780088  RH  017%=      5-min Rain = 0
KQU1 120138Z 19012KT 38/09 A2992 RMK A01 T03770088  RH  017%=      5-min Rain = 0
KQU1 120139Z 19012KT 38/09 A2992 RMK A01 T03770089  RH  017%=      5-min Rain = 0
KQU1 120140Z 19011KT 38/09 A2992 RMK A01 T03770089  RH  018%=      5-min Rain = 0
KQU1 120141Z 19011KT 38/09 A2992 RMK A01 T03760090  RH  018%=      5-min Rain = 0
KQU1 120142Z 19010KT 38/09 A2992 RMK A01 T03760091  RH  018%=      5-min Rain = 0
KQU1 120143Z 19012KT 38/09 A2992 RMK A01 T03750091  RH  018%=      5-min Rain = 0
KQU1 120144Z 18010KT 38/09 A2992 RMK A01 T03750091  RH  018%=      5-min Rain = 0
KQU1 120145Z 19011KT 37/09 A2992 RMK A01 T03740092  RH  018%=      5-min Rain = 0
KQU1 120146Z 19010KT 37/09 A2992 RMK A01 T03730092  RH  018%=      5-min Rain = 0
KQU1 120147Z 19010KT 37/09 A2992 RMK A01 T03720092  RH  018%=      5-min Rain = 0
KQU1 120148Z 18011KT 37/09 A2992 RMK A01 T03720091  RH  018%=      5-min Rain = 0
KQU1 120149Z 18011KT 37/09 A2992 RMK A01 T03720091  RH  018%=      5-min Rain = 0
KQU1 120150Z 19012KT 37/09 A2992 RMK A01 T03720091  RH  018%=      5-min Rain = 0
KQU1 120151Z 18011KT 37/09 A2992 RMK A01 T03720091  RH  018%=      5-min Rain = 0
KQU1 120152Z 18011KT 37/09 A2992 RMK A01 T03720091  RH  018%=      5-min Rain = 0
KQU1 120153Z 18011KT 37/09 A2992 RMK A01 T03710092  RH  018%=      5-min Rain = 0
KQU1 120154Z 18010KT 37/09 A2992 RMK A01 T03700092  RH  019%=      5-min Rain = 0
KQU1 120155Z 18011KT 37/09 A2992 RMK A01 T03690091  RH  019%=      5-min Rain = 0
KQU1 120156Z 18011KT 37/09 A2992 RMK A01 T03680091  RH  019%=      5-min Rain = 0
KQU1 120157Z 18011KT 37/09 A2992 RMK A01 T03680091  RH  019%=      5-min Rain = 0
KQU1 120158Z 18010KT 37/09 A2992 RMK A01 T03670091  RH  019%=      5-min Rain = 0
KQU1 120159Z 18011KT 37/09 A2992 RMK A01 T03660092  RH  019%=      5-min Rain = 0
KQU1 120200Z 18010KT 37/09 A2992 RMK A01 T03660092  RH  019%=      5-min Rain = 0
KQU1 120201Z 18010KT 37/09 A2992 RMK A01 T03650093  RH  019%=      5-min Rain = 0
KQU1 120202Z 18010KT 36/09 A2992 RMK A01 T03640093  RH  019%=      5-min Rain = 0
KQU1 120203Z 18010KT 36/09 A2992 RMK A01 T03630094  RH  019%=      5-min Rain = 0
KQU1 120204Z 18009KT 36/09 A2992 RMK A01 T03620094  RH  020%=      5-min Rain = 0
KQU1 120205Z 18009KT 36/10 A2992 RMK A01 T03610095  RH  020%=      5-min Rain = 0
KQU1 120206Z 18009KT 36/10 A2992 RMK A01 T03600096  RH  020%=      5-min Rain = 0
KQU1 120207Z 18010KT 36/10 A2992 RMK A01 T03590096  RH  020%=      5-min Rain = 0
KQU1 120208Z 18010KT 36/10 A2992 RMK A01 T03590097  RH  020%=      5-min Rain = 0
KQU1 120209Z 18009KT 36/10 A2992 RMK A01 T03580097  RH  020%=      5-min Rain = 0
KQU1 120210Z 18009KT 36/10 A2992 RMK A01 T03580098  RH  021%=      5-min Rain = 0
KQU1 120211Z 18009KT 36/10 A2992 RMK A01 T03570098  RH  021%=      5-min Rain = 0
KQU1 120212Z 18009KT 36/10 A2992 RMK A01 T03570098  RH  021%=      5-min Rain = 0
KQU1 120213Z 18009KT 36/10 A2992 RMK A01 T03560099  RH  021%=      5-min Rain = 0
KQU1 120214Z 18008KT 36/10 A2992 RMK A01 T03550099  RH  021%=      5-min Rain = 0
KQU1 120215Z 18009KT 36/10 A2992 RMK A01 T03550099  RH  021%=      5-min Rain = 0
KQU1 120216Z 18009KT 35/10 A2992 RMK A01 T03540100  RH  021%=      5-min Rain = 0
KQU1 120217Z 18008KT 35/10 A2992 RMK A01 T03540100  RH  021%=      5-min Rain = 0
KQU1 120218Z 18008KT 35/10 A2992 RMK A01 T03530100  RH  022%=      5-min Rain = 0
KQU1 120219Z 18008KT 35/10 A2992 RMK A01 T03520100  RH  022%=      5-min Rain = 0
KQU1 120220Z 18008KT 35/10 A2992 RMK A01 T03520101  RH  022%=      5-min Rain = 0
KQU1 120221Z 18008KT 35/10 A2992 RMK A01 T03510101  RH  022%=      5-min Rain = 0
KQU1 120222Z 19008KT 35/10 A2992 RMK A01 T03510101  RH  022%=      5-min Rain = 0
KQU1 120223Z 19008KT 35/10 A2992 RMK A01 T03500101  RH  022%=      5-min Rain = 0
KQU1 120224Z 19008KT 35/10 A2992 RMK A01 T03500101  RH  022%=      5-min Rain = 0
KQU1 120225Z 19007KT 35/10 A2992 RMK A01 T03500101  RH  022%=      5-min Rain = 0
KQU1 120226Z 19007KT 35/10 A2992 RMK A01 T03490101  RH  022%=      5-min Rain = 0
KQU1 120227Z 19007KT 35/10 A2993 RMK A01 T03490101  RH  022%=      5-min Rain = 0
KQU1 120228Z 19007KT 35/10 A2993 RMK A01 T03480101  RH  022%=      5-min Rain = 0
KQU1 120229Z 19007KT 35/10 A2993 RMK A01 T03470102  RH  022%=      5-min Rain = 0
KQU1 120230Z 19006KT 35/10 A2993 RMK A01 T03460102  RH  023%=      5-min Rain = 0
KQU1 120231Z 19006KT 34/10 A2993 RMK A01 T03440103  RH  023%=      5-min Rain = 0
KQU1 120232Z 19006KT 34/10 A2993 RMK A01 T03430103  RH  023%=      5-min Rain = 0
KQU1 120233Z 18006KT 34/10 A2993 RMK A01 T03410104  RH  023%=      5-min Rain = 0
KQU1 120234Z 19007KT 34/10 A2993 RMK A01 T03400104  RH  024%=      5-min Rain = 0
KQU1 120235Z 19007KT 34/10 A2993 RMK A01 T03390104  RH  024%=      5-min Rain = 0
KQU1 120236Z 19007KT 34/10 A2993 RMK A01 T03380104  RH  024%=      5-min Rain = 0
KQU1 120237Z 19007KT 34/10 A2993 RMK A01 T03370104  RH  024%=      5-min Rain = 0
KQU1 120238Z 19006KT 34/10 A2993 RMK A01 T03370103  RH  024%=      5-min Rain = 0
KQU1 120239Z 19006KT 34/11 A2994 RMK A01 T03370105  RH  024%=      5-min Rain = 0
KQU1 120240Z 19006KT 34/11 A2994 RMK A01 T03360105  RH  024%=      5-min Rain = 0
KQU1 120241Z 19006KT 34/11 A2994 RMK A01 T03350106  RH  025%=      5-min Rain = 0
KQU1 120242Z 19006KT 33/11 A2994 RMK A01 T03330107  RH  025%=      5-min Rain = 0
KQU1 120243Z 20006KT 33/11 A2994 RMK A01 T03310108  RH  026%=      5-min Rain = 0
KQU1 120244Z 20006KT 33/11 A2994 RMK A01 T03290107  RH  026%=      5-min Rain = 0
KQU1 120245Z 20006KT 33/11 A2994 RMK A01 T03280106  RH  026%=      5-min Rain = 0
KQU1 120246Z 20006KT 33/11 A2994 RMK A01 T03270106  RH  026%=      5-min Rain = 0
KQU1 120247Z 20006KT 33/11 A2994 RMK A01 T03260106  RH  026%=      5-min Rain = 0
KQU1 120248Z 20006KT 33/11 A2994 RMK A01 T03260105  RH  026%=      5-min Rain = 0
KQU1 120249Z 20006KT 33/10 A2994 RMK A01 T03260104  RH  026%=      5-min Rain = 0
KQU1 120250Z 20006KT 33/10 A2994 RMK A01 T03270104  RH  026%=      5-min Rain = 0
KQU1 120251Z 20006KT 33/11 A2994 RMK A01 T03270105  RH  026%=      5-min Rain = 0
KQU1 120252Z 20006KT 33/11 A2994 RMK A01 T03260106  RH  026%=      5-min Rain = 0
KQU1 120253Z 21006KT 33/11 A2994 RMK A01 T03250106  RH  026%=      5-min Rain = 0
KQU1 120254Z 21006KT 32/11 A2994 RMK A01 T03240106  RH  026%=      5-min Rain = 0
KQU1 120255Z 21006KT 32/11 A2994 RMK A01 T03230105  RH  026%=      5-min Rain = 0
KQU1 120256Z 21006KT 32/11 A2994 RMK A01 T03220105  RH  026%=      5-min Rain = 0
KQU1 120257Z 21006KT 32/10 A2994 RMK A01 T03220104  RH  026%=      5-min Rain = 0
KQU1 120258Z 21006KT 32/10 A2994 RMK A01 T03210104  RH  026%=      5-min Rain = 0
KQU1 120259Z 21006KT 32/10 A2994 RMK A01 T03210103  RH  026%=      5-min Rain = 0
KQU1 120300Z 21006KT 32/10 A2994 RMK A01 T03210103  RH  026%=      5-min Rain = 0
KQU1 120301Z 21006KT 32/10 A2994 RMK A01 T03220103  RH  026%=      5-min Rain = 0
KQU1 120302Z 21005KT 32/10 A2994 RMK A01 T03210103  RH  026%=      5-min Rain = 0
KQU1 120303Z 21005KT 32/10 A2994 RMK A01 T03210103  RH  026%=      5-min Rain = 0
KQU1 120304Z 21005KT 32/10 A2994 RMK A01 T03210104  RH  026%=      5-min Rain = 0
KQU1 120305Z 21004KT 32/10 A2994 RMK A01 T03210104  RH  026%=      5-min Rain = 0
KQU1 120306Z 21004KT 32/10 A2994 RMK A01 T03210104  RH  026%=      5-min Rain = 0
KQU1 120307Z 22003KT 32/10 A2994 RMK A01 T03200104  RH  026%=      5-min Rain = 0
KQU1 120308Z 22002KT 32/11 A2994 RMK A01 T03200105  RH  027%=      5-min Rain = 0
KQU1 120309Z 24000KT 32/11 A2995 RMK A01 T03190109  RH  028%=      5-min Rain = 0
KQU1 120310Z 33000KT 32/12 A2995 RMK A01 T03180122  RH  030%=      5-min Rain = 0
KQU1 120311Z 35002KT 32/13 A2995 RMK A01 T03160132  RH  032%=      5-min Rain = 0
KQU1 120312Z 01004KT 31/13 A2996 RMK A01 T03130128  RH  032%=      5-min Rain = 0
KQU1 120313Z 01005KT 31/13 A2996 RMK A01 T03110128  RH  033%=      5-min Rain = 0
KQU1 120314Z 02006KT 31/13 A2996 RMK A01 T03090130  RH  034%=      5-min Rain = 0
KQU1 120315Z 02005KT 31/12 A2997 RMK A01 T03070123  RH  032%=      5-min Rain = 0
KQU1 120316Z 03003KT 31/13 A2997 RMK A01 T03070128  RH  033%=      5-min Rain = 0
KQU1 120317Z 00004KT 31/13 A2997 RMK A01 T03080126  RH  033%=      5-min Rain = 0
KQU1 120318Z 03005G13KT 31/12 A2998 RMK A01 T03090117  RH  031%=      5-min Rain = 0
KQU1 120319Z 02005G10KT 32/11 A2998 RMK A01 T03150114  RH  029%=      5-min Rain = 0
KQU1 120320Z 03006G12KT 32/11 A2998 RMK A01 T03200113  RH  028%=      5-min Rain = 0
KQU1 120321Z 02006KT 32/11 A2998 RMK A01 T03240113  RH  027%=      5-min Rain = 0
KQU1 120322Z 02005KT 33/11 A2998 RMK A01 T03270113  RH  027%=      5-min Rain = 0
KQU1 120323Z 02006KT 33/11 A2998 RMK A01 T03290111  RH  026%=      5-min Rain = 0
KQU1 120324Z 02006KT 33/11 A2998 RMK A01 T03320112  RH  026%=      5-min Rain = 0
KQU1 120325Z 02006G11KT 33/11 A2998 RMK A01 T03340111  RH  026%=      5-min Rain = 0
KQU1 120326Z 02007KT 34/11 A2998 RMK A01 T03360112  RH  025%=      5-min Rain = 0
KQU1 120327Z 03009KT 34/11 A2998 RMK A01 T03380112  RH  025%=      5-min Rain = 0
KQU1 120328Z 03005KT 34/11 A2998 RMK A01 T03400112  RH  025%=      5-min Rain = 0
KQU1 120329Z 03004KT 34/11 A2998 RMK A01 T03410114  RH  025%=      5-min Rain = 0
KQU1 120330Z 03006KT 34/11 A2998 RMK A01 T03410114  RH  025%=      5-min Rain = 0
KQU1 120331Z 03008KT 34/12 A2998 RMK A01 T03420115  RH  025%=      5-min Rain = 0
KQU1 120332Z 03008KT 34/11 A2998 RMK A01 T03420112  RH  025%=      5-min Rain = 0
KQU1 120333Z 05005KT 34/11 A2998 RMK A01 T03430112  RH  024%=      5-min Rain = 0
KQU1 120334Z 05007KT 34/11 A2998 RMK A01 T03440112  RH  024%=      5-min Rain = 0
KQU1 120335Z 04005KT 35/11 A2998 RMK A01 T03450114  RH  025%=      5-min Rain = 0
KQU1 120336Z 05006KT 35/11 A2998 RMK A01 T03450108  RH  024%=      5-min Rain = 0
KQU1 120337Z 05004KT 35/11 A2998 RMK A01 T03460108  RH  024%=      5-min Rain = 0
KQU1 120338Z 06005KT 35/11 A2997 RMK A01 T03460107  RH  023%=      5-min Rain = 0
KQU1 120339Z 06007KT 35/11 A2997 RMK A01 T03460108  RH  023%=      5-min Rain = 0
KQU1 120340Z 06006KT 35/11 A2997 RMK A01 T03460108  RH  024%=      5-min Rain = 0
KQU1 120341Z 07006KT 35/11 A2997 RMK A01 T03450110  RH  024%=      5-min Rain = 0
KQU1 120342Z 06006KT 34/11 A2997 RMK A01 T03440110  RH  024%=      5-min Rain = 0
KQU1 120343Z 07007KT 34/11 A2997 RMK A01 T03430108  RH  024%=      5-min Rain = 0
KQU1 120344Z 06006KT 34/11 A2997 RMK A01 T03430108  RH  024%=      5-min Rain = 0
KQU1 120345Z 05005KT 34/11 A2997 RMK A01 T03430107  RH  024%=      5-min Rain = 0
KQU1 120346Z 06004KT 34/11 A2997 RMK A01 T03420109  RH  024%=      5-min Rain = 0
KQU1 120347Z 06005KT 34/11 A2997 RMK A01 T03420110  RH  024%=      5-min Rain = 0
KQU1 120348Z 07007KT 34/11 A2997 RMK A01 T03410109  RH  024%=      5-min Rain = 0
KQU1 120349Z 07007KT 34/11 A2997 RMK A01 T03400107  RH  024%=      5-min Rain = 0
KQU1 120350Z 08006KT 34/11 A2997 RMK A01 T03400107  RH  024%=      5-min Rain = 0
KQU1 120351Z 08005KT 34/11 A2998 RMK A01 T03390108  RH  024%=      5-min Rain = 0
KQU1 120352Z 09005KT 34/11 A2998 RMK A01 T03380108  RH  024%=      5-min Rain = 0
KQU1 120353Z 09004KT 34/11 A2998 RMK A01 T03380107  RH  025%=      5-min Rain = 0
KQU1 120354Z 10005KT 34/11 A2998 RMK A01 T03370108  RH  025%=      5-min Rain = 0
KQU1 120355Z 09005KT 34/11 A2998 RMK A01 T03360107  RH  025%=      5-min Rain = 0
KQU1 120356Z 09005KT 34/11 A2998 RMK A01 T03360107  RH  025%=      5-min Rain = 0
KQU1 120357Z 08006KT 34/11 A2998 RMK A01 T03350108  RH  025%=      5-min Rain = 0
KQU1 120358Z 08006KT 34/11 A2997 RMK A01 T03350108  RH  025%=      5-min Rain = 0
KQU1 120359Z 09006KT 34/11 A2997 RMK A01 T03350108  RH  025%=      5-min Rain = 0
KQU1 120400Z 10005KT 33/11 A2998 RMK A01 T03340109  RH  025%=      5-min Rain = 0
KQU1 120401Z 11005KT 33/11 A2998 RMK A01 T03340109  RH  025%=      5-min Rain = 0
KQU1 120402Z 12004KT 33/11 A2998 RMK A01 T03330111  RH  026%=      5-min Rain = 0
KQU1 120403Z 11005KT 33/11 A2998 RMK A01 T03330112  RH  026%=      5-min Rain = 0
KQU1 120404Z 12005KT 33/11 A2998 RMK A01 T03320114  RH  026%=      5-min Rain = 0
KQU1 120405Z 11005KT 33/11 A2998 RMK A01 T03310114  RH  027%=      5-min Rain = 0
KQU1 120406Z 11005KT 33/12 A2998 RMK A01 T03300115  RH  027%=      5-min Rain = 0
KQU1 120407Z 11006KT 33/12 A2998 RMK A01 T03290116  RH  027%=      5-min Rain = 0
KQU1 120408Z 10006KT 33/12 A2998 RMK A01 T03280117  RH  028%=      5-min Rain = 0
KQU1 120409Z 10006KT 33/12 A2998 RMK A01 T03280119  RH  028%=      5-min Rain = 0
KQU1 120410Z 09006KT 33/12 A2998 RMK A01 T03280120  RH  028%=      5-min Rain = 0
KQU1 120411Z 09006KT 33/12 A2998 RMK A01 T03270120  RH  028%=      5-min Rain = 0
KQU1 120412Z 09006KT 33/12 A2998 RMK A01 T03270121  RH  029%=      5-min Rain = 0
KQU1 120413Z 09006KT 33/12 A2998 RMK A01 T03270123  RH  029%=      5-min Rain = 0
KQU1 120414Z 09005KT 33/12 A2998 RMK A01 T03270124  RH  029%=      5-min Rain = 0
KQU1 120415Z 09006KT 33/12 A2998 RMK A01 T03270124  RH  029%=      5-min Rain = 0
KQU1 120416Z 08005KT 33/13 A2998 RMK A01 T03270125  RH  029%=      5-min Rain = 0
KQU1 120417Z 08005KT 33/13 A2999 RMK A01 T03270126  RH  030%=      5-min Rain = 0
KQU1 120418Z 08006KT 33/13 A2999 RMK A01 T03270127  RH  030%=      5-min Rain = 0
KQU1 120419Z 08006KT 33/13 A2999 RMK A01 T03270128  RH  030%=      5-min Rain = 0
KQU1 120420Z 08006KT 33/13 A2999 RMK A01 T03270129  RH  030%=      5-min Rain = 0
KQU1 120421Z 07006KT 33/13 A2999 RMK A01 T03270129  RH  030%=      5-min Rain = 0
KQU1 120422Z 08005KT 33/13 A2999 RMK A01 T03260130  RH  030%=      5-min Rain = 0
KQU1 120423Z 08005KT 33/13 A2999 RMK A01 T03250131  RH  031%=      5-min Rain = 0
KQU1 120424Z 08005KT 32/13 A2999 RMK A01 T03240130  RH  031%=      5-min Rain = 0
KQU1 120425Z 08005KT 32/13 A2999 RMK A01 T03240131  RH  031%=      5-min Rain = 0
KQU1 120426Z 09007KT 32/13 A2999 RMK A01 T03230132  RH  031%=      5-min Rain = 0
KQU1 120427Z 09007KT 32/13 A2999 RMK A01 T03220132  RH  031%=      5-min Rain = 0
KQU1 120428Z 10007KT 32/13 A2999 RMK A01 T03220132  RH  032%=      5-min Rain = 0
KQU1 120429Z 10006KT 32/13 A2999 RMK A01 T03220133  RH  032%=      5-min Rain = 0
KQU1 120430Z 10006KT 32/13 A2999 RMK A01 T03210134  RH  032%=      5-min Rain = 0
KQU1 120431Z 09006KT 32/13 A2999 RMK A01 T03200134  RH  032%=      5-min Rain = 0
KQU1 120432Z 10004KT 32/14 A2999 RMK A01 T03200135  RH  032%=      5-min Rain = 0
KQU1 120433Z 10006KT 32/14 A2999 RMK A01 T03200135  RH  033%=      5-min Rain = 0
KQU1 120434Z 11006KT 32/14 A2999 RMK A01 T03200136  RH  033%=      5-min Rain = 0
KQU1 120435Z 10008KT 32/14 A2998 RMK A01 T03190137  RH  033%=      5-min Rain = 0
KQU1 120436Z 10008KT 32/14 A2999 RMK A01 T03200138  RH  033%=      5-min Rain = 0
KQU1 120437Z 11010KT 32/14 A2999 RMK A01 T03200139  RH  033%=      5-min Rain = 0
KQU1 120438Z 11008KT 32/14 A2999 RMK A01 T03210139  RH  033%=      5-min Rain = 0
KQU1 120439Z 11007KT 32/14 A2999 RMK A01 T03200139  RH  033%=      5-min Rain = 0
KQU1 120440Z 10008KT 32/14 A2999 RMK A01 T03200139  RH  033%=      5-min Rain = 0
KQU1 120441Z 10007KT 32/14 A2999 RMK A01 T03200139  RH  033%=      5-min Rain = 0
KQU1 120442Z 10008KT 32/14 A2999 RMK A01 T03200140  RH  033%=      5-min Rain = 0
KQU1 120443Z 10007KT 32/14 A2999 RMK A01 T03200140  RH  033%=      5-min Rain = 0
KQU1 120444Z 11007KT 32/14 A2999 RMK A01 T03200140  RH  034%=      5-min Rain = 0
KQU1 120445Z 11007KT 32/14 A2999 RMK A01 T03200140  RH  034%=      5-min Rain = 0
KQU1 120446Z 11006KT 32/14 A2998 RMK A01 T03200140  RH  034%=      5-min Rain = 0
KQU1 120447Z 11006KT 32/14 A2998 RMK A01 T03200140  RH  034%=      5-min Rain = 0
KQU1 120448Z 11006KT 32/14 A2998 RMK A01 T03190140  RH  034%=      5-min Rain = 0
KQU1 120449Z 11006KT 32/14 A2998 RMK A01 T03190141  RH  034%=      5-min Rain = 0
KQU1 120450Z 12006KT 32/14 A2998 RMK A01 T03180141  RH  034%=      5-min Rain = 0
KQU1 120451Z 11006KT 32/14 A2998 RMK A01 T03170142  RH  035%=      5-min Rain = 0
KQU1 120452Z 11006KT 32/14 A2998 RMK A01 T03170142  RH  035%=      5-min Rain = 0
KQU1 120453Z 11005KT 32/14 A2998 RMK A01 T03170142  RH  035%=      5-min Rain = 0
KQU1 120454Z 11005KT 32/14 A2998 RMK A01 T03160143  RH  035%=      5-min Rain = 0
KQU1 120455Z 11005KT 32/14 A2999 RMK A01 T03160143  RH  035%=      5-min Rain = 0
KQU1 120456Z 11005KT 32/14 A2999 RMK A01 T03160143  RH  035%=      5-min Rain = 0
KQU1 120457Z 11004KT 32/14 A2999 RMK A01 T03160143  RH  035%=      5-min Rain = 0
KQU1 120458Z 11004KT 32/14 A2999 RMK A01 T03160143  RH  035%=      5-min Rain = 0
KQU1 120459Z 11002KT 32/14 A2999 RMK A01 T03150144  RH  035%=      5-min Rain = 0

Page generated in 0.0715 seconds.